<?xml version="1.0" encoding="UTF-8" standalone="no" ?>
<gpx xmlns="http://www.topografix.com/GPX/1/1" xmlns:xsi="http://www.w3.org/2001/XMLSchema-instance" xsi:schemaLocation="http://www.topografix.com/GPX/1/1 http://www.topografix.com/GPX/1/1/gpx.xsd" version="1.1" creator="VisuGPX - https://www.visugpx.com">
  <metadata>
    <name>83-V-Bras           </name>
    <desc><![CDATA[83-V-Bras : le Gouffre          ]]></desc>
  </metadata>
  <trk>
    <name><![CDATA[BRAS le pont de St Simian 11km9 D 65m F1 5 h Ve Voit 80km]]></name>
    <trkseg>
      <trkpt lat="43.47462" lon="5.95235">
        <ele>422.2</ele>
        <time>2016-04-08T08:03:05Z</time>
      </trkpt>
      <trkpt lat="43.47462" lon="5.95234">
        <ele>422.2</ele>
        <time>2016-04-08T08:03:06Z</time>
      </trkpt>
      <trkpt lat="43.4747" lon="5.95228">
        <ele>428.5</ele>
        <time>2016-04-08T08:03:19Z</time>
      </trkpt>
      <trkpt lat="43.47479" lon="5.95224">
        <ele>430</ele>
        <time>2016-04-08T08:03:28Z</time>
      </trkpt>
      <trkpt lat="43.47489" lon="5.95219">
        <ele>430</ele>
        <time>2016-04-08T08:03:37Z</time>
      </trkpt>
      <trkpt lat="43.47498" lon="5.95213">
        <ele>430</ele>
        <time>2016-04-08T08:03:47Z</time>
      </trkpt>
      <trkpt lat="43.47507" lon="5.95211">
        <ele>424.3</ele>
        <time>2016-04-08T08:04:13Z</time>
      </trkpt>
      <trkpt lat="43.47514" lon="5.95203">
        <ele>422.8</ele>
        <time>2016-04-08T08:04:28Z</time>
      </trkpt>
      <trkpt lat="43.47524" lon="5.95202">
        <ele>421.7</ele>
        <time>2016-04-08T08:04:41Z</time>
      </trkpt>
      <trkpt lat="43.47533" lon="5.95202">
        <ele>420.2</ele>
        <time>2016-04-08T08:04:51Z</time>
      </trkpt>
      <trkpt lat="43.47542" lon="5.95202">
        <ele>418.9</ele>
        <time>2016-04-08T08:05:00Z</time>
      </trkpt>
      <trkpt lat="43.47552" lon="5.95201">
        <ele>417.8</ele>
        <time>2016-04-08T08:05:09Z</time>
      </trkpt>
      <trkpt lat="43.4756" lon="5.95196">
        <ele>415.9</ele>
        <time>2016-04-08T08:05:26Z</time>
      </trkpt>
      <trkpt lat="43.47571" lon="5.95196">
        <ele>415.5</ele>
        <time>2016-04-08T08:05:35Z</time>
      </trkpt>
      <trkpt lat="43.4758" lon="5.95195">
        <ele>416.1</ele>
        <time>2016-04-08T08:05:40Z</time>
      </trkpt>
      <trkpt lat="43.47588" lon="5.95201">
        <ele>412.5</ele>
        <time>2016-04-08T08:06:24Z</time>
      </trkpt>
      <trkpt lat="43.47597" lon="5.95204">
        <ele>411.2</ele>
        <time>2016-04-08T08:06:33Z</time>
      </trkpt>
      <trkpt lat="43.47607" lon="5.95206">
        <ele>409.5</ele>
        <time>2016-04-08T08:06:45Z</time>
      </trkpt>
      <trkpt lat="43.47616" lon="5.95207">
        <ele>408.4</ele>
        <time>2016-04-08T08:06:53Z</time>
      </trkpt>
      <trkpt lat="43.47625" lon="5.95207">
        <ele>406.6</ele>
        <time>2016-04-08T08:07:00Z</time>
      </trkpt>
      <trkpt lat="43.47635" lon="5.95206">
        <ele>405.1</ele>
        <time>2016-04-08T08:07:09Z</time>
      </trkpt>
      <trkpt lat="43.47645" lon="5.95206">
        <ele>404.2</ele>
        <time>2016-04-08T08:07:15Z</time>
      </trkpt>
      <trkpt lat="43.47654" lon="5.95204">
        <ele>402.6</ele>
        <time>2016-04-08T08:07:25Z</time>
      </trkpt>
      <trkpt lat="43.47664" lon="5.95205">
        <ele>400.9</ele>
        <time>2016-04-08T08:07:34Z</time>
      </trkpt>
      <trkpt lat="43.47672" lon="5.95211">
        <ele>398.3</ele>
        <time>2016-04-08T08:07:48Z</time>
      </trkpt>
      <trkpt lat="43.47681" lon="5.95213">
        <ele>396.5</ele>
        <time>2016-04-08T08:07:59Z</time>
      </trkpt>
      <trkpt lat="43.47691" lon="5.95214">
        <ele>393.5</ele>
        <time>2016-04-08T08:08:15Z</time>
      </trkpt>
      <trkpt lat="43.477" lon="5.95213">
        <ele>390.9</ele>
        <time>2016-04-08T08:08:28Z</time>
      </trkpt>
      <trkpt lat="43.4771" lon="5.95215">
        <ele>387.8</ele>
        <time>2016-04-08T08:08:41Z</time>
      </trkpt>
      <trkpt lat="43.47719" lon="5.9522">
        <ele>384.4</ele>
        <time>2016-04-08T08:09:04Z</time>
      </trkpt>
      <trkpt lat="43.47729" lon="5.95221">
        <ele>381.5</ele>
        <time>2016-04-08T08:09:21Z</time>
      </trkpt>
      <trkpt lat="43.47738" lon="5.9522">
        <ele>378.5</ele>
        <time>2016-04-08T08:09:35Z</time>
      </trkpt>
      <trkpt lat="43.47746" lon="5.95227">
        <ele>376.2</ele>
        <time>2016-04-08T08:09:49Z</time>
      </trkpt>
      <trkpt lat="43.47756" lon="5.95224">
        <ele>372.7</ele>
        <time>2016-04-08T08:10:09Z</time>
      </trkpt>
      <trkpt lat="43.47762" lon="5.95234">
        <ele>370.8</ele>
        <time>2016-04-08T08:10:24Z</time>
      </trkpt>
      <trkpt lat="43.47764" lon="5.95247">
        <ele>370.1</ele>
        <time>2016-04-08T08:10:37Z</time>
      </trkpt>
      <trkpt lat="43.47766" lon="5.95261">
        <ele>370.2</ele>
        <time>2016-04-08T08:10:49Z</time>
      </trkpt>
      <trkpt lat="43.47765" lon="5.95273">
        <ele>370.2</ele>
        <time>2016-04-08T08:10:59Z</time>
      </trkpt>
      <trkpt lat="43.47765" lon="5.95286">
        <ele>369.7</ele>
        <time>2016-04-08T08:11:07Z</time>
      </trkpt>
      <trkpt lat="43.47764" lon="5.95298">
        <ele>369.9</ele>
        <time>2016-04-08T08:11:17Z</time>
      </trkpt>
      <trkpt lat="43.47773" lon="5.95298">
        <ele>369.9</ele>
        <time>2016-04-08T08:11:27Z</time>
      </trkpt>
      <trkpt lat="43.47782" lon="5.95292">
        <ele>370</ele>
        <time>2016-04-08T08:11:38Z</time>
      </trkpt>
      <trkpt lat="43.47791" lon="5.95288">
        <ele>369.5</ele>
        <time>2016-04-08T08:11:47Z</time>
      </trkpt>
      <trkpt lat="43.47799" lon="5.9528">
        <ele>369.1</ele>
        <time>2016-04-08T08:11:55Z</time>
      </trkpt>
      <trkpt lat="43.47808" lon="5.95275">
        <ele>369.2</ele>
        <time>2016-04-08T08:12:06Z</time>
      </trkpt>
      <trkpt lat="43.47816" lon="5.95267">
        <ele>369.5</ele>
        <time>2016-04-08T08:12:15Z</time>
      </trkpt>
      <trkpt lat="43.47823" lon="5.95259">
        <ele>369.4</ele>
        <time>2016-04-08T08:12:23Z</time>
      </trkpt>
      <trkpt lat="43.4783" lon="5.95249">
        <ele>369.1</ele>
        <time>2016-04-08T08:12:32Z</time>
      </trkpt>
      <trkpt lat="43.47835" lon="5.95238">
        <ele>368.7</ele>
        <time>2016-04-08T08:12:41Z</time>
      </trkpt>
      <trkpt lat="43.4784" lon="5.95227">
        <ele>368.7</ele>
        <time>2016-04-08T08:12:49Z</time>
      </trkpt>
      <trkpt lat="43.47844" lon="5.95215">
        <ele>368.8</ele>
        <time>2016-04-08T08:12:57Z</time>
      </trkpt>
      <trkpt lat="43.47846" lon="5.95202">
        <ele>368.9</ele>
        <time>2016-04-08T08:13:07Z</time>
      </trkpt>
      <trkpt lat="43.47848" lon="5.95189">
        <ele>368.8</ele>
        <time>2016-04-08T08:13:15Z</time>
      </trkpt>
      <trkpt lat="43.47851" lon="5.95177">
        <ele>369.2</ele>
        <time>2016-04-08T08:13:23Z</time>
      </trkpt>
      <trkpt lat="43.47852" lon="5.95164">
        <ele>369.5</ele>
        <time>2016-04-08T08:13:31Z</time>
      </trkpt>
      <trkpt lat="43.47854" lon="5.9515">
        <ele>369.5</ele>
        <time>2016-04-08T08:13:40Z</time>
      </trkpt>
      <trkpt lat="43.47855" lon="5.95137">
        <ele>369.3</ele>
        <time>2016-04-08T08:13:48Z</time>
      </trkpt>
      <trkpt lat="43.47856" lon="5.95125">
        <ele>369.5</ele>
        <time>2016-04-08T08:13:56Z</time>
      </trkpt>
      <trkpt lat="43.47857" lon="5.95113">
        <ele>369.5</ele>
        <time>2016-04-08T08:14:06Z</time>
      </trkpt>
      <trkpt lat="43.47858" lon="5.951">
        <ele>369.3</ele>
        <time>2016-04-08T08:14:14Z</time>
      </trkpt>
      <trkpt lat="43.47858" lon="5.95087">
        <ele>369.7</ele>
        <time>2016-04-08T08:14:23Z</time>
      </trkpt>
      <trkpt lat="43.4786" lon="5.95075">
        <ele>369.6</ele>
        <time>2016-04-08T08:14:31Z</time>
      </trkpt>
      <trkpt lat="43.47866" lon="5.95065">
        <ele>369.7</ele>
        <time>2016-04-08T08:14:40Z</time>
      </trkpt>
      <trkpt lat="43.47874" lon="5.9506">
        <ele>369.7</ele>
        <time>2016-04-08T08:14:57Z</time>
      </trkpt>
      <trkpt lat="43.47883" lon="5.95064">
        <ele>369.7</ele>
        <time>2016-04-08T08:15:12Z</time>
      </trkpt>
      <trkpt lat="43.47892" lon="5.95069">
        <ele>369.6</ele>
        <time>2016-04-08T08:15:23Z</time>
      </trkpt>
      <trkpt lat="43.47901" lon="5.9507">
        <ele>368.9</ele>
        <time>2016-04-08T08:15:35Z</time>
      </trkpt>
      <trkpt lat="43.4791" lon="5.95069">
        <ele>368.4</ele>
        <time>2016-04-08T08:15:44Z</time>
      </trkpt>
      <trkpt lat="43.4792" lon="5.95069">
        <ele>369.9</ele>
        <time>2016-04-08T08:16:05Z</time>
      </trkpt>
      <trkpt lat="43.47929" lon="5.95067">
        <ele>369.9</ele>
        <time>2016-04-08T08:16:17Z</time>
      </trkpt>
      <trkpt lat="43.47938" lon="5.95069">
        <ele>369.6</ele>
        <time>2016-04-08T08:16:28Z</time>
      </trkpt>
      <trkpt lat="43.47948" lon="5.95072">
        <ele>369.4</ele>
        <time>2016-04-08T08:16:42Z</time>
      </trkpt>
      <trkpt lat="43.47957" lon="5.95076">
        <ele>369.5</ele>
        <time>2016-04-08T08:16:51Z</time>
      </trkpt>
      <trkpt lat="43.47966" lon="5.95081">
        <ele>369.4</ele>
        <time>2016-04-08T08:17:01Z</time>
      </trkpt>
      <trkpt lat="43.47975" lon="5.95086">
        <ele>369.5</ele>
        <time>2016-04-08T08:17:09Z</time>
      </trkpt>
      <trkpt lat="43.47982" lon="5.95094">
        <ele>369.1</ele>
        <time>2016-04-08T08:17:19Z</time>
      </trkpt>
      <trkpt lat="43.47991" lon="5.951">
        <ele>369.2</ele>
        <time>2016-04-08T08:17:27Z</time>
      </trkpt>
      <trkpt lat="43.47999" lon="5.95106">
        <ele>369.5</ele>
        <time>2016-04-08T08:17:36Z</time>
      </trkpt>
      <trkpt lat="43.48007" lon="5.95113">
        <ele>368.7</ele>
        <time>2016-04-08T08:17:44Z</time>
      </trkpt>
      <trkpt lat="43.48017" lon="5.95116">
        <ele>368.9</ele>
        <time>2016-04-08T08:17:51Z</time>
      </trkpt>
      <trkpt lat="43.48026" lon="5.95118">
        <ele>369</ele>
        <time>2016-04-08T08:18:00Z</time>
      </trkpt>
      <trkpt lat="43.48035" lon="5.95119">
        <ele>369</ele>
        <time>2016-04-08T08:18:09Z</time>
      </trkpt>
      <trkpt lat="43.48045" lon="5.95119">
        <ele>368.6</ele>
        <time>2016-04-08T08:18:20Z</time>
      </trkpt>
      <trkpt lat="43.48054" lon="5.95117">
        <ele>368.3</ele>
        <time>2016-04-08T08:18:31Z</time>
      </trkpt>
      <trkpt lat="43.48063" lon="5.95116">
        <ele>368.5</ele>
        <time>2016-04-08T08:18:39Z</time>
      </trkpt>
      <trkpt lat="43.48072" lon="5.95111">
        <ele>368.8</ele>
        <time>2016-04-08T08:18:48Z</time>
      </trkpt>
      <trkpt lat="43.48081" lon="5.95109">
        <ele>369</ele>
        <time>2016-04-08T08:18:56Z</time>
      </trkpt>
      <trkpt lat="43.48091" lon="5.95107">
        <ele>369</ele>
        <time>2016-04-08T08:19:06Z</time>
      </trkpt>
      <trkpt lat="43.48101" lon="5.95104">
        <ele>369</ele>
        <time>2016-04-08T08:19:19Z</time>
      </trkpt>
      <trkpt lat="43.4811" lon="5.95102">
        <ele>369.3</ele>
        <time>2016-04-08T08:19:43Z</time>
      </trkpt>
      <trkpt lat="43.48119" lon="5.95098">
        <ele>368.4</ele>
        <time>2016-04-08T08:20:38Z</time>
      </trkpt>
      <trkpt lat="43.48127" lon="5.95091">
        <ele>368.5</ele>
        <time>2016-04-08T08:20:48Z</time>
      </trkpt>
      <trkpt lat="43.48134" lon="5.95083">
        <ele>368.5</ele>
        <time>2016-04-08T08:20:59Z</time>
      </trkpt>
      <trkpt lat="43.48144" lon="5.95084">
        <ele>368.6</ele>
        <time>2016-04-08T08:21:49Z</time>
      </trkpt>
      <trkpt lat="43.48135" lon="5.9508">
        <ele>368.9</ele>
        <time>2016-04-08T08:22:17Z</time>
      </trkpt>
      <trkpt lat="43.48147" lon="5.9508">
        <ele>369</ele>
        <time>2016-04-08T08:23:09Z</time>
      </trkpt>
      <trkpt lat="43.48155" lon="5.95084">
        <ele>369</ele>
        <time>2016-04-08T08:23:17Z</time>
      </trkpt>
      <trkpt lat="43.48165" lon="5.95086">
        <ele>368.9</ele>
        <time>2016-04-08T08:23:26Z</time>
      </trkpt>
      <trkpt lat="43.48175" lon="5.95089">
        <ele>368.8</ele>
        <time>2016-04-08T08:23:31Z</time>
      </trkpt>
      <trkpt lat="43.48184" lon="5.95092">
        <ele>368.7</ele>
        <time>2016-04-08T08:23:38Z</time>
      </trkpt>
      <trkpt lat="43.48194" lon="5.95092">
        <ele>368.7</ele>
        <time>2016-04-08T08:23:45Z</time>
      </trkpt>
      <trkpt lat="43.48204" lon="5.95089">
        <ele>368.8</ele>
        <time>2016-04-08T08:23:51Z</time>
      </trkpt>
      <trkpt lat="43.48213" lon="5.95085">
        <ele>369.1</ele>
        <time>2016-04-08T08:23:59Z</time>
      </trkpt>
      <trkpt lat="43.48222" lon="5.95082">
        <ele>369.3</ele>
        <time>2016-04-08T08:24:06Z</time>
      </trkpt>
      <trkpt lat="43.48231" lon="5.95079">
        <ele>369.3</ele>
        <time>2016-04-08T08:24:13Z</time>
      </trkpt>
      <trkpt lat="43.48241" lon="5.95076">
        <ele>369.3</ele>
        <time>2016-04-08T08:24:20Z</time>
      </trkpt>
      <trkpt lat="43.48249" lon="5.95071">
        <ele>369.1</ele>
        <time>2016-04-08T08:24:28Z</time>
      </trkpt>
      <trkpt lat="43.48258" lon="5.95067">
        <ele>369.1</ele>
        <time>2016-04-08T08:24:35Z</time>
      </trkpt>
      <trkpt lat="43.48267" lon="5.95064">
        <ele>368.5</ele>
        <time>2016-04-08T08:24:43Z</time>
      </trkpt>
      <trkpt lat="43.48277" lon="5.95061">
        <ele>368.7</ele>
        <time>2016-04-08T08:24:51Z</time>
      </trkpt>
      <trkpt lat="43.48286" lon="5.95057">
        <ele>369</ele>
        <time>2016-04-08T08:25:00Z</time>
      </trkpt>
      <trkpt lat="43.48295" lon="5.95058">
        <ele>368.8</ele>
        <time>2016-04-08T08:25:10Z</time>
      </trkpt>
      <trkpt lat="43.48303" lon="5.95065">
        <ele>368.7</ele>
        <time>2016-04-08T08:25:18Z</time>
      </trkpt>
      <trkpt lat="43.48312" lon="5.95071">
        <ele>368.8</ele>
        <time>2016-04-08T08:25:27Z</time>
      </trkpt>
      <trkpt lat="43.48321" lon="5.95076">
        <ele>368.4</ele>
        <time>2016-04-08T08:25:35Z</time>
      </trkpt>
      <trkpt lat="43.4833" lon="5.95076">
        <ele>368.3</ele>
        <time>2016-04-08T08:25:43Z</time>
      </trkpt>
      <trkpt lat="43.4834" lon="5.95075">
        <ele>367.9</ele>
        <time>2016-04-08T08:25:53Z</time>
      </trkpt>
      <trkpt lat="43.4835" lon="5.95069">
        <ele>368</ele>
        <time>2016-04-08T08:26:01Z</time>
      </trkpt>
      <trkpt lat="43.48359" lon="5.95066">
        <ele>367.6</ele>
        <time>2016-04-08T08:26:08Z</time>
      </trkpt>
      <trkpt lat="43.48368" lon="5.95063">
        <ele>368.3</ele>
        <time>2016-04-08T08:27:12Z</time>
      </trkpt>
      <trkpt lat="43.48377" lon="5.95059">
        <ele>368.1</ele>
        <time>2016-04-08T08:27:20Z</time>
      </trkpt>
      <trkpt lat="43.48386" lon="5.95055">
        <ele>367.9</ele>
        <time>2016-04-08T08:27:29Z</time>
      </trkpt>
      <trkpt lat="43.48395" lon="5.95049">
        <ele>368.1</ele>
        <time>2016-04-08T08:27:39Z</time>
      </trkpt>
      <trkpt lat="43.48404" lon="5.95054">
        <ele>366.9</ele>
        <time>2016-04-08T08:28:29Z</time>
      </trkpt>
      <trkpt lat="43.48414" lon="5.95056">
        <ele>366.7</ele>
        <time>2016-04-08T08:28:39Z</time>
      </trkpt>
      <trkpt lat="43.48423" lon="5.95059">
        <ele>366.3</ele>
        <time>2016-04-08T08:28:50Z</time>
      </trkpt>
      <trkpt lat="43.48433" lon="5.95061">
        <ele>365.9</ele>
        <time>2016-04-08T08:29:03Z</time>
      </trkpt>
      <trkpt lat="43.48442" lon="5.95064">
        <ele>366.5</ele>
        <time>2016-04-08T08:29:22Z</time>
      </trkpt>
      <trkpt lat="43.4845" lon="5.9507">
        <ele>366.3</ele>
        <time>2016-04-08T08:30:41Z</time>
      </trkpt>
      <trkpt lat="43.4846" lon="5.95067">
        <ele>366.7</ele>
        <time>2016-04-08T08:31:00Z</time>
      </trkpt>
      <trkpt lat="43.4847" lon="5.9507">
        <ele>366.4</ele>
        <time>2016-04-08T08:31:11Z</time>
      </trkpt>
      <trkpt lat="43.48479" lon="5.9507">
        <ele>366</ele>
        <time>2016-04-08T08:31:23Z</time>
      </trkpt>
      <trkpt lat="43.48488" lon="5.95068">
        <ele>366.4</ele>
        <time>2016-04-08T08:31:37Z</time>
      </trkpt>
      <trkpt lat="43.485" lon="5.95068">
        <ele>366.5</ele>
        <time>2016-04-08T08:31:49Z</time>
      </trkpt>
      <trkpt lat="43.48509" lon="5.95066">
        <ele>366.4</ele>
        <time>2016-04-08T08:32:00Z</time>
      </trkpt>
      <trkpt lat="43.48519" lon="5.95064">
        <ele>366.3</ele>
        <time>2016-04-08T08:32:09Z</time>
      </trkpt>
      <trkpt lat="43.48529" lon="5.95064">
        <ele>366.4</ele>
        <time>2016-04-08T08:32:21Z</time>
      </trkpt>
      <trkpt lat="43.48538" lon="5.95069">
        <ele>366.4</ele>
        <time>2016-04-08T08:32:28Z</time>
      </trkpt>
      <trkpt lat="43.48548" lon="5.95068">
        <ele>366.7</ele>
        <time>2016-04-08T08:32:35Z</time>
      </trkpt>
      <trkpt lat="43.48557" lon="5.95064">
        <ele>366.2</ele>
        <time>2016-04-08T08:32:45Z</time>
      </trkpt>
      <trkpt lat="43.48568" lon="5.9506">
        <ele>366.2</ele>
        <time>2016-04-08T08:32:57Z</time>
      </trkpt>
      <trkpt lat="43.48578" lon="5.95061">
        <ele>366.1</ele>
        <time>2016-04-08T08:33:04Z</time>
      </trkpt>
      <trkpt lat="43.48589" lon="5.95058">
        <ele>366</ele>
        <time>2016-04-08T08:33:10Z</time>
      </trkpt>
      <trkpt lat="43.48598" lon="5.95063">
        <ele>365.9</ele>
        <time>2016-04-08T08:33:49Z</time>
      </trkpt>
      <trkpt lat="43.48607" lon="5.95057">
        <ele>365.5</ele>
        <time>2016-04-08T08:34:27Z</time>
      </trkpt>
      <trkpt lat="43.48616" lon="5.95057">
        <ele>365.5</ele>
        <time>2016-04-08T08:34:36Z</time>
      </trkpt>
      <trkpt lat="43.48625" lon="5.95059">
        <ele>365.7</ele>
        <time>2016-04-08T08:34:45Z</time>
      </trkpt>
      <trkpt lat="43.48636" lon="5.95058">
        <ele>366</ele>
        <time>2016-04-08T08:34:53Z</time>
      </trkpt>
      <trkpt lat="43.48646" lon="5.95058">
        <ele>365.9</ele>
        <time>2016-04-08T08:35:02Z</time>
      </trkpt>
      <trkpt lat="43.48656" lon="5.9506">
        <ele>366.1</ele>
        <time>2016-04-08T08:35:10Z</time>
      </trkpt>
      <trkpt lat="43.48665" lon="5.95059">
        <ele>365.8</ele>
        <time>2016-04-08T08:35:19Z</time>
      </trkpt>
      <trkpt lat="43.48674" lon="5.95057">
        <ele>365.9</ele>
        <time>2016-04-08T08:35:28Z</time>
      </trkpt>
      <trkpt lat="43.48683" lon="5.95055">
        <ele>365.7</ele>
        <time>2016-04-08T08:35:39Z</time>
      </trkpt>
      <trkpt lat="43.48692" lon="5.95051">
        <ele>365.7</ele>
        <time>2016-04-08T08:35:48Z</time>
      </trkpt>
      <trkpt lat="43.48702" lon="5.9505">
        <ele>365.6</ele>
        <time>2016-04-08T08:35:58Z</time>
      </trkpt>
      <trkpt lat="43.48712" lon="5.95048">
        <ele>365.4</ele>
        <time>2016-04-08T08:36:06Z</time>
      </trkpt>
      <trkpt lat="43.48722" lon="5.95045">
        <ele>365.1</ele>
        <time>2016-04-08T08:36:14Z</time>
      </trkpt>
      <trkpt lat="43.48731" lon="5.95045">
        <ele>365.7</ele>
        <time>2016-04-08T08:36:21Z</time>
      </trkpt>
      <trkpt lat="43.4874" lon="5.95043">
        <ele>366.8</ele>
        <time>2016-04-08T08:37:08Z</time>
      </trkpt>
      <trkpt lat="43.48749" lon="5.95043">
        <ele>365.5</ele>
        <time>2016-04-08T08:39:46Z</time>
      </trkpt>
      <trkpt lat="43.48758" lon="5.9504">
        <ele>365.5</ele>
        <time>2016-04-08T08:39:57Z</time>
      </trkpt>
      <trkpt lat="43.48767" lon="5.95038">
        <ele>365.4</ele>
        <time>2016-04-08T08:40:10Z</time>
      </trkpt>
      <trkpt lat="43.48777" lon="5.95036">
        <ele>365.5</ele>
        <time>2016-04-08T08:40:20Z</time>
      </trkpt>
      <trkpt lat="43.48786" lon="5.95035">
        <ele>365.1</ele>
        <time>2016-04-08T08:40:31Z</time>
      </trkpt>
      <trkpt lat="43.48795" lon="5.95033">
        <ele>365.2</ele>
        <time>2016-04-08T08:40:40Z</time>
      </trkpt>
      <trkpt lat="43.48805" lon="5.9503">
        <ele>365.2</ele>
        <time>2016-04-08T08:40:51Z</time>
      </trkpt>
      <trkpt lat="43.48814" lon="5.95029">
        <ele>365.4</ele>
        <time>2016-04-08T08:41:01Z</time>
      </trkpt>
      <trkpt lat="43.48824" lon="5.95027">
        <ele>365.6</ele>
        <time>2016-04-08T08:41:12Z</time>
      </trkpt>
      <trkpt lat="43.48833" lon="5.95026">
        <ele>365.2</ele>
        <time>2016-04-08T08:41:21Z</time>
      </trkpt>
      <trkpt lat="43.48842" lon="5.95023">
        <ele>365.2</ele>
        <time>2016-04-08T08:41:30Z</time>
      </trkpt>
      <trkpt lat="43.48851" lon="5.95022">
        <ele>365</ele>
        <time>2016-04-08T08:41:37Z</time>
      </trkpt>
      <trkpt lat="43.48861" lon="5.9502">
        <ele>365.2</ele>
        <time>2016-04-08T08:41:44Z</time>
      </trkpt>
      <trkpt lat="43.4887" lon="5.95018">
        <ele>365.1</ele>
        <time>2016-04-08T08:41:53Z</time>
      </trkpt>
      <trkpt lat="43.4888" lon="5.95018">
        <ele>364.7</ele>
        <time>2016-04-08T08:42:02Z</time>
      </trkpt>
      <trkpt lat="43.48889" lon="5.95015">
        <ele>364.4</ele>
        <time>2016-04-08T08:42:12Z</time>
      </trkpt>
      <trkpt lat="43.48898" lon="5.95012">
        <ele>364.7</ele>
        <time>2016-04-08T08:42:21Z</time>
      </trkpt>
      <trkpt lat="43.48907" lon="5.95011">
        <ele>364.7</ele>
        <time>2016-04-08T08:42:30Z</time>
      </trkpt>
      <trkpt lat="43.48916" lon="5.9501">
        <ele>364.7</ele>
        <time>2016-04-08T08:42:40Z</time>
      </trkpt>
      <trkpt lat="43.48925" lon="5.95008">
        <ele>365</ele>
        <time>2016-04-08T08:42:52Z</time>
      </trkpt>
      <trkpt lat="43.48934" lon="5.95006">
        <ele>365</ele>
        <time>2016-04-08T08:43:02Z</time>
      </trkpt>
      <trkpt lat="43.48944" lon="5.95005">
        <ele>364.6</ele>
        <time>2016-04-08T08:43:10Z</time>
      </trkpt>
      <trkpt lat="43.48953" lon="5.95005">
        <ele>365</ele>
        <time>2016-04-08T08:43:17Z</time>
      </trkpt>
      <trkpt lat="43.48962" lon="5.95001">
        <ele>364.4</ele>
        <time>2016-04-08T08:43:29Z</time>
      </trkpt>
      <trkpt lat="43.48971" lon="5.94997">
        <ele>364.3</ele>
        <time>2016-04-08T08:43:40Z</time>
      </trkpt>
      <trkpt lat="43.4898" lon="5.94995">
        <ele>364</ele>
        <time>2016-04-08T08:43:49Z</time>
      </trkpt>
      <trkpt lat="43.48989" lon="5.94992">
        <ele>363.8</ele>
        <time>2016-04-08T08:43:58Z</time>
      </trkpt>
      <trkpt lat="43.48999" lon="5.9499">
        <ele>363.7</ele>
        <time>2016-04-08T08:44:11Z</time>
      </trkpt>
      <trkpt lat="43.49008" lon="5.9499">
        <ele>363.7</ele>
        <time>2016-04-08T08:44:21Z</time>
      </trkpt>
      <trkpt lat="43.49018" lon="5.94989">
        <ele>363.9</ele>
        <time>2016-04-08T08:44:30Z</time>
      </trkpt>
      <trkpt lat="43.49027" lon="5.94984">
        <ele>364.3</ele>
        <time>2016-04-08T08:44:42Z</time>
      </trkpt>
      <trkpt lat="43.49036" lon="5.9498">
        <ele>364.3</ele>
        <time>2016-04-08T08:44:54Z</time>
      </trkpt>
      <trkpt lat="43.49045" lon="5.94975">
        <ele>364.3</ele>
        <time>2016-04-08T08:45:02Z</time>
      </trkpt>
      <trkpt lat="43.49054" lon="5.94968">
        <ele>364</ele>
        <time>2016-04-08T08:45:12Z</time>
      </trkpt>
      <trkpt lat="43.49062" lon="5.94961">
        <ele>363.8</ele>
        <time>2016-04-08T08:45:22Z</time>
      </trkpt>
      <trkpt lat="43.49071" lon="5.94957">
        <ele>364.1</ele>
        <time>2016-04-08T08:45:35Z</time>
      </trkpt>
      <trkpt lat="43.49081" lon="5.94954">
        <ele>363.6</ele>
        <time>2016-04-08T08:45:49Z</time>
      </trkpt>
      <trkpt lat="43.49092" lon="5.94956">
        <ele>364</ele>
        <time>2016-04-08T08:45:57Z</time>
      </trkpt>
      <trkpt lat="43.49102" lon="5.94958">
        <ele>364.2</ele>
        <time>2016-04-08T08:46:09Z</time>
      </trkpt>
      <trkpt lat="43.49111" lon="5.94956">
        <ele>364.4</ele>
        <time>2016-04-08T08:46:17Z</time>
      </trkpt>
      <trkpt lat="43.49121" lon="5.94957">
        <ele>364.1</ele>
        <time>2016-04-08T08:46:25Z</time>
      </trkpt>
      <trkpt lat="43.4913" lon="5.94956">
        <ele>364.2</ele>
        <time>2016-04-08T08:46:35Z</time>
      </trkpt>
      <trkpt lat="43.49139" lon="5.94956">
        <ele>364.4</ele>
        <time>2016-04-08T08:46:44Z</time>
      </trkpt>
      <trkpt lat="43.49149" lon="5.94953">
        <ele>364.7</ele>
        <time>2016-04-08T08:46:56Z</time>
      </trkpt>
      <trkpt lat="43.49157" lon="5.94961">
        <ele>365</ele>
        <time>2016-04-08T08:47:35Z</time>
      </trkpt>
      <trkpt lat="43.49165" lon="5.94955">
        <ele>364.8</ele>
        <time>2016-04-08T08:48:17Z</time>
      </trkpt>
      <trkpt lat="43.49173" lon="5.9495">
        <ele>365.1</ele>
        <time>2016-04-08T08:48:29Z</time>
      </trkpt>
      <trkpt lat="43.49181" lon="5.94943">
        <ele>365</ele>
        <time>2016-04-08T08:48:43Z</time>
      </trkpt>
      <trkpt lat="43.49191" lon="5.9494">
        <ele>364.9</ele>
        <time>2016-04-08T08:48:56Z</time>
      </trkpt>
      <trkpt lat="43.492" lon="5.94936">
        <ele>364.8</ele>
        <time>2016-04-08T08:49:08Z</time>
      </trkpt>
      <trkpt lat="43.4921" lon="5.94935">
        <ele>364.8</ele>
        <time>2016-04-08T08:49:16Z</time>
      </trkpt>
      <trkpt lat="43.49219" lon="5.94931">
        <ele>365.3</ele>
        <time>2016-04-08T08:49:27Z</time>
      </trkpt>
      <trkpt lat="43.49228" lon="5.94932">
        <ele>364.9</ele>
        <time>2016-04-08T08:50:48Z</time>
      </trkpt>
      <trkpt lat="43.49238" lon="5.94931">
        <ele>365</ele>
        <time>2016-04-08T08:50:58Z</time>
      </trkpt>
      <trkpt lat="43.49247" lon="5.94933">
        <ele>364.7</ele>
        <time>2016-04-08T08:51:07Z</time>
      </trkpt>
      <trkpt lat="43.49257" lon="5.94937">
        <ele>364.9</ele>
        <time>2016-04-08T08:51:18Z</time>
      </trkpt>
      <trkpt lat="43.49264" lon="5.94946">
        <ele>365</ele>
        <time>2016-04-08T08:51:31Z</time>
      </trkpt>
      <trkpt lat="43.49269" lon="5.94956">
        <ele>365.1</ele>
        <time>2016-04-08T08:51:40Z</time>
      </trkpt>
      <trkpt lat="43.49276" lon="5.94967">
        <ele>365.5</ele>
        <time>2016-04-08T08:51:52Z</time>
      </trkpt>
      <trkpt lat="43.49282" lon="5.94977">
        <ele>365.3</ele>
        <time>2016-04-08T08:52:03Z</time>
      </trkpt>
      <trkpt lat="43.49289" lon="5.94985">
        <ele>365.7</ele>
        <time>2016-04-08T08:52:12Z</time>
      </trkpt>
      <trkpt lat="43.49297" lon="5.94993">
        <ele>366.3</ele>
        <time>2016-04-08T08:52:21Z</time>
      </trkpt>
      <trkpt lat="43.49305" lon="5.95">
        <ele>366.4</ele>
        <time>2016-04-08T08:52:30Z</time>
      </trkpt>
      <trkpt lat="43.4931" lon="5.95011">
        <ele>366.6</ele>
        <time>2016-04-08T08:52:50Z</time>
      </trkpt>
      <trkpt lat="43.49318" lon="5.95019">
        <ele>366.5</ele>
        <time>2016-04-08T08:53:00Z</time>
      </trkpt>
      <trkpt lat="43.49323" lon="5.9503">
        <ele>366.5</ele>
        <time>2016-04-08T08:53:12Z</time>
      </trkpt>
      <trkpt lat="43.49324" lon="5.95042">
        <ele>366.1</ele>
        <time>2016-04-08T08:53:24Z</time>
      </trkpt>
      <trkpt lat="43.49329" lon="5.95053">
        <ele>365.7</ele>
        <time>2016-04-08T08:53:34Z</time>
      </trkpt>
      <trkpt lat="43.49328" lon="5.95066">
        <ele>365.4</ele>
        <time>2016-04-08T08:53:41Z</time>
      </trkpt>
      <trkpt lat="43.4933" lon="5.95078">
        <ele>364.5</ele>
        <time>2016-04-08T08:53:50Z</time>
      </trkpt>
      <trkpt lat="43.49336" lon="5.95089">
        <ele>364.1</ele>
        <time>2016-04-08T08:53:59Z</time>
      </trkpt>
      <trkpt lat="43.49339" lon="5.95101">
        <ele>364</ele>
        <time>2016-04-08T08:54:08Z</time>
      </trkpt>
      <trkpt lat="43.49342" lon="5.95114">
        <ele>363.9</ele>
        <time>2016-04-08T08:54:17Z</time>
      </trkpt>
      <trkpt lat="43.49346" lon="5.95126">
        <ele>364</ele>
        <time>2016-04-08T08:54:27Z</time>
      </trkpt>
      <trkpt lat="43.49349" lon="5.95139">
        <ele>363.7</ele>
        <time>2016-04-08T08:54:37Z</time>
      </trkpt>
      <trkpt lat="43.49352" lon="5.95152">
        <ele>363.6</ele>
        <time>2016-04-08T08:54:47Z</time>
      </trkpt>
      <trkpt lat="43.49357" lon="5.95163">
        <ele>363.7</ele>
        <time>2016-04-08T08:54:58Z</time>
      </trkpt>
      <trkpt lat="43.49361" lon="5.95175">
        <ele>363.6</ele>
        <time>2016-04-08T08:55:07Z</time>
      </trkpt>
      <trkpt lat="43.49363" lon="5.95187">
        <ele>364.1</ele>
        <time>2016-04-08T08:55:16Z</time>
      </trkpt>
      <trkpt lat="43.49368" lon="5.95199">
        <ele>363.8</ele>
        <time>2016-04-08T08:55:25Z</time>
      </trkpt>
      <trkpt lat="43.49373" lon="5.9521">
        <ele>363.8</ele>
        <time>2016-04-08T08:55:32Z</time>
      </trkpt>
      <trkpt lat="43.49378" lon="5.95221">
        <ele>363.8</ele>
        <time>2016-04-08T08:55:40Z</time>
      </trkpt>
      <trkpt lat="43.49384" lon="5.9523">
        <ele>364</ele>
        <time>2016-04-08T08:55:50Z</time>
      </trkpt>
      <trkpt lat="43.49392" lon="5.95238">
        <ele>364.4</ele>
        <time>2016-04-08T08:56:07Z</time>
      </trkpt>
      <trkpt lat="43.49392" lon="5.95251">
        <ele>364.5</ele>
        <time>2016-04-08T08:59:12Z</time>
      </trkpt>
      <trkpt lat="43.49398" lon="5.95261">
        <ele>364.1</ele>
        <time>2016-04-08T08:59:24Z</time>
      </trkpt>
      <trkpt lat="43.49405" lon="5.95269">
        <ele>364.2</ele>
        <time>2016-04-08T08:59:39Z</time>
      </trkpt>
      <trkpt lat="43.49411" lon="5.95279">
        <ele>364.4</ele>
        <time>2016-04-08T08:59:53Z</time>
      </trkpt>
      <trkpt lat="43.4942" lon="5.95286">
        <ele>364.3</ele>
        <time>2016-04-08T09:00:03Z</time>
      </trkpt>
      <trkpt lat="43.49429" lon="5.95285">
        <ele>365.2</ele>
        <time>2016-04-08T09:00:16Z</time>
      </trkpt>
      <trkpt lat="43.49436" lon="5.95277">
        <ele>365.9</ele>
        <time>2016-04-08T09:00:58Z</time>
      </trkpt>
      <trkpt lat="43.49446" lon="5.95278">
        <ele>366.5</ele>
        <time>2016-04-08T09:01:11Z</time>
      </trkpt>
      <trkpt lat="43.49456" lon="5.95275">
        <ele>366.4</ele>
        <time>2016-04-08T09:01:28Z</time>
      </trkpt>
      <trkpt lat="43.49464" lon="5.95277">
        <ele>366.2</ele>
        <time>2016-04-08T09:01:43Z</time>
      </trkpt>
      <trkpt lat="43.49474" lon="5.95271">
        <ele>365.7</ele>
        <time>2016-04-08T09:02:00Z</time>
      </trkpt>
      <trkpt lat="43.49481" lon="5.95264">
        <ele>366.5</ele>
        <time>2016-04-08T09:02:09Z</time>
      </trkpt>
      <trkpt lat="43.4949" lon="5.95259">
        <ele>366.6</ele>
        <time>2016-04-08T09:02:18Z</time>
      </trkpt>
      <trkpt lat="43.49499" lon="5.95253">
        <ele>367</ele>
        <time>2016-04-08T09:02:31Z</time>
      </trkpt>
      <trkpt lat="43.49508" lon="5.95249">
        <ele>367</ele>
        <time>2016-04-08T09:02:41Z</time>
      </trkpt>
      <trkpt lat="43.49517" lon="5.95243">
        <ele>367.2</ele>
        <time>2016-04-08T09:02:50Z</time>
      </trkpt>
      <trkpt lat="43.49525" lon="5.95237">
        <ele>367.2</ele>
        <time>2016-04-08T09:02:59Z</time>
      </trkpt>
      <trkpt lat="43.49533" lon="5.95231">
        <ele>367.2</ele>
        <time>2016-04-08T09:03:09Z</time>
      </trkpt>
      <trkpt lat="43.49542" lon="5.95225">
        <ele>367.3</ele>
        <time>2016-04-08T09:03:19Z</time>
      </trkpt>
      <trkpt lat="43.49551" lon="5.95218">
        <ele>367.1</ele>
        <time>2016-04-08T09:03:28Z</time>
      </trkpt>
      <trkpt lat="43.49557" lon="5.95209">
        <ele>367.4</ele>
        <time>2016-04-08T09:03:37Z</time>
      </trkpt>
      <trkpt lat="43.49565" lon="5.95201">
        <ele>367.4</ele>
        <time>2016-04-08T09:03:46Z</time>
      </trkpt>
      <trkpt lat="43.49573" lon="5.95194">
        <ele>367.5</ele>
        <time>2016-04-08T09:03:56Z</time>
      </trkpt>
      <trkpt lat="43.49583" lon="5.9519">
        <ele>367.3</ele>
        <time>2016-04-08T09:04:11Z</time>
      </trkpt>
      <trkpt lat="43.49589" lon="5.9518">
        <ele>367.9</ele>
        <time>2016-04-08T09:04:22Z</time>
      </trkpt>
      <trkpt lat="43.49597" lon="5.95172">
        <ele>367.9</ele>
        <time>2016-04-08T09:04:34Z</time>
      </trkpt>
      <trkpt lat="43.49604" lon="5.95163">
        <ele>367.9</ele>
        <time>2016-04-08T09:04:43Z</time>
      </trkpt>
      <trkpt lat="43.49611" lon="5.95156">
        <ele>367.2</ele>
        <time>2016-04-08T09:04:55Z</time>
      </trkpt>
      <trkpt lat="43.49619" lon="5.95147">
        <ele>367</ele>
        <time>2016-04-08T09:05:05Z</time>
      </trkpt>
      <trkpt lat="43.49627" lon="5.95141">
        <ele>366.9</ele>
        <time>2016-04-08T09:05:14Z</time>
      </trkpt>
      <trkpt lat="43.49636" lon="5.95134">
        <ele>366.3</ele>
        <time>2016-04-08T09:05:23Z</time>
      </trkpt>
      <trkpt lat="43.49645" lon="5.95129">
        <ele>366.4</ele>
        <time>2016-04-08T09:05:31Z</time>
      </trkpt>
      <trkpt lat="43.49654" lon="5.95125">
        <ele>366.3</ele>
        <time>2016-04-08T09:05:39Z</time>
      </trkpt>
      <trkpt lat="43.49663" lon="5.95119">
        <ele>366</ele>
        <time>2016-04-08T09:05:47Z</time>
      </trkpt>
      <trkpt lat="43.4967" lon="5.95113">
        <ele>365.8</ele>
        <time>2016-04-08T09:05:55Z</time>
      </trkpt>
      <trkpt lat="43.49677" lon="5.95104">
        <ele>365.7</ele>
        <time>2016-04-08T09:06:03Z</time>
      </trkpt>
      <trkpt lat="43.49685" lon="5.95096">
        <ele>365.7</ele>
        <time>2016-04-08T09:06:13Z</time>
      </trkpt>
      <trkpt lat="43.4969" lon="5.95086">
        <ele>365.5</ele>
        <time>2016-04-08T09:06:21Z</time>
      </trkpt>
      <trkpt lat="43.49696" lon="5.95076">
        <ele>365.4</ele>
        <time>2016-04-08T09:06:30Z</time>
      </trkpt>
      <trkpt lat="43.49701" lon="5.95064">
        <ele>365.6</ele>
        <time>2016-04-08T09:06:39Z</time>
      </trkpt>
      <trkpt lat="43.49703" lon="5.95052">
        <ele>365.9</ele>
        <time>2016-04-08T09:06:50Z</time>
      </trkpt>
      <trkpt lat="43.49709" lon="5.95041">
        <ele>366.6</ele>
        <time>2016-04-08T09:07:02Z</time>
      </trkpt>
      <trkpt lat="43.49717" lon="5.95034">
        <ele>366.4</ele>
        <time>2016-04-08T09:07:10Z</time>
      </trkpt>
      <trkpt lat="43.49726" lon="5.95037">
        <ele>366.7</ele>
        <time>2016-04-08T09:07:32Z</time>
      </trkpt>
      <trkpt lat="43.49731" lon="5.95047">
        <ele>366.4</ele>
        <time>2016-04-08T09:08:10Z</time>
      </trkpt>
      <trkpt lat="43.4974" lon="5.95049">
        <ele>366.7</ele>
        <time>2016-04-08T09:08:33Z</time>
      </trkpt>
      <trkpt lat="43.49748" lon="5.95041">
        <ele>366.7</ele>
        <time>2016-04-08T09:08:52Z</time>
      </trkpt>
      <trkpt lat="43.49754" lon="5.9505">
        <ele>367.1</ele>
        <time>2016-04-08T09:09:11Z</time>
      </trkpt>
      <trkpt lat="43.4976" lon="5.95059">
        <ele>368.1</ele>
        <time>2016-04-08T09:10:15Z</time>
      </trkpt>
      <trkpt lat="43.49766" lon="5.95049">
        <ele>371.6</ele>
        <time>2016-04-08T09:10:48Z</time>
      </trkpt>
      <trkpt lat="43.49774" lon="5.9504">
        <ele>376.3</ele>
        <time>2016-04-08T09:11:11Z</time>
      </trkpt>
      <trkpt lat="43.49781" lon="5.95034">
        <ele>377.6</ele>
        <time>2016-04-08T09:11:26Z</time>
      </trkpt>
      <trkpt lat="43.49788" lon="5.95043">
        <ele>378.8</ele>
        <time>2016-04-08T09:12:22Z</time>
      </trkpt>
      <trkpt lat="43.49778" lon="5.95045">
        <ele>377.6</ele>
        <time>2016-04-08T09:12:49Z</time>
      </trkpt>
      <trkpt lat="43.49771" lon="5.95054">
        <ele>374.8</ele>
        <time>2016-04-08T09:13:06Z</time>
      </trkpt>
      <trkpt lat="43.49765" lon="5.95062">
        <ele>370.5</ele>
        <time>2016-04-08T09:13:20Z</time>
      </trkpt>
      <trkpt lat="43.49757" lon="5.95055">
        <ele>367.7</ele>
        <time>2016-04-08T09:13:35Z</time>
      </trkpt>
      <trkpt lat="43.49758" lon="5.95042">
        <ele>368.2</ele>
        <time>2016-04-08T09:13:41Z</time>
      </trkpt>
      <trkpt lat="43.4976" lon="5.95028">
        <ele>368.8</ele>
        <time>2016-04-08T09:13:49Z</time>
      </trkpt>
      <trkpt lat="43.4976" lon="5.95015">
        <ele>369.2</ele>
        <time>2016-04-08T09:14:48Z</time>
      </trkpt>
      <trkpt lat="43.49768" lon="5.95008">
        <ele>369.1</ele>
        <time>2016-04-08T09:17:51Z</time>
      </trkpt>
      <trkpt lat="43.49775" lon="5.95">
        <ele>368.5</ele>
        <time>2016-04-08T09:18:00Z</time>
      </trkpt>
      <trkpt lat="43.49784" lon="5.94994">
        <ele>367.4</ele>
        <time>2016-04-08T09:18:22Z</time>
      </trkpt>
      <trkpt lat="43.49791" lon="5.95002">
        <ele>367.2</ele>
        <time>2016-04-08T09:18:34Z</time>
      </trkpt>
      <trkpt lat="43.498" lon="5.95005">
        <ele>367.1</ele>
        <time>2016-04-08T09:18:47Z</time>
      </trkpt>
      <trkpt lat="43.49809" lon="5.95009">
        <ele>367.1</ele>
        <time>2016-04-08T09:18:56Z</time>
      </trkpt>
      <trkpt lat="43.49818" lon="5.95013">
        <ele>367.1</ele>
        <time>2016-04-08T09:19:05Z</time>
      </trkpt>
      <trkpt lat="43.49828" lon="5.95017">
        <ele>367.1</ele>
        <time>2016-04-08T09:19:14Z</time>
      </trkpt>
      <trkpt lat="43.49837" lon="5.95022">
        <ele>367</ele>
        <time>2016-04-08T09:19:25Z</time>
      </trkpt>
      <trkpt lat="43.49846" lon="5.95026">
        <ele>367.1</ele>
        <time>2016-04-08T09:19:41Z</time>
      </trkpt>
      <trkpt lat="43.49852" lon="5.95038">
        <ele>367.4</ele>
        <time>2016-04-08T09:19:54Z</time>
      </trkpt>
      <trkpt lat="43.49859" lon="5.95045">
        <ele>367.6</ele>
        <time>2016-04-08T09:20:04Z</time>
      </trkpt>
      <trkpt lat="43.49868" lon="5.9505">
        <ele>367.9</ele>
        <time>2016-04-08T09:20:17Z</time>
      </trkpt>
      <trkpt lat="43.49877" lon="5.95057">
        <ele>368</ele>
        <time>2016-04-08T09:20:29Z</time>
      </trkpt>
      <trkpt lat="43.49885" lon="5.95064">
        <ele>367.8</ele>
        <time>2016-04-08T09:20:39Z</time>
      </trkpt>
      <trkpt lat="43.4989" lon="5.95076">
        <ele>368</ele>
        <time>2016-04-08T09:20:57Z</time>
      </trkpt>
      <trkpt lat="43.49895" lon="5.95086">
        <ele>368.6</ele>
        <time>2016-04-08T09:22:28Z</time>
      </trkpt>
      <trkpt lat="43.49902" lon="5.95095">
        <ele>368.9</ele>
        <time>2016-04-08T09:22:37Z</time>
      </trkpt>
      <trkpt lat="43.4991" lon="5.95102">
        <ele>369.4</ele>
        <time>2016-04-08T09:22:47Z</time>
      </trkpt>
      <trkpt lat="43.49914" lon="5.95113">
        <ele>368.7</ele>
        <time>2016-04-08T09:23:01Z</time>
      </trkpt>
      <trkpt lat="43.49922" lon="5.95121">
        <ele>368.6</ele>
        <time>2016-04-08T09:23:17Z</time>
      </trkpt>
      <trkpt lat="43.49929" lon="5.95128">
        <ele>368.3</ele>
        <time>2016-04-08T09:23:30Z</time>
      </trkpt>
      <trkpt lat="43.49937" lon="5.95135">
        <ele>369</ele>
        <time>2016-04-08T09:23:39Z</time>
      </trkpt>
      <trkpt lat="43.49946" lon="5.9514">
        <ele>367.8</ele>
        <time>2016-04-08T09:23:50Z</time>
      </trkpt>
      <trkpt lat="43.49955" lon="5.95144">
        <ele>368.7</ele>
        <time>2016-04-08T09:24:02Z</time>
      </trkpt>
      <trkpt lat="43.49964" lon="5.95147">
        <ele>367.9</ele>
        <time>2016-04-08T09:24:15Z</time>
      </trkpt>
      <trkpt lat="43.49972" lon="5.95153">
        <ele>367.4</ele>
        <time>2016-04-08T09:24:24Z</time>
      </trkpt>
      <trkpt lat="43.4998" lon="5.95161">
        <ele>367.3</ele>
        <time>2016-04-08T09:24:32Z</time>
      </trkpt>
      <trkpt lat="43.4999" lon="5.95163">
        <ele>365.7</ele>
        <time>2016-04-08T09:24:40Z</time>
      </trkpt>
      <trkpt lat="43.49998" lon="5.95168">
        <ele>366</ele>
        <time>2016-04-08T09:24:49Z</time>
      </trkpt>
      <trkpt lat="43.50006" lon="5.95161">
        <ele>366.3</ele>
        <time>2016-04-08T09:25:33Z</time>
      </trkpt>
      <trkpt lat="43.50015" lon="5.95157">
        <ele>365.9</ele>
        <time>2016-04-08T09:25:50Z</time>
      </trkpt>
      <trkpt lat="43.50024" lon="5.95156">
        <ele>364.3</ele>
        <time>2016-04-08T09:26:26Z</time>
      </trkpt>
      <trkpt lat="43.50029" lon="5.95166">
        <ele>364.2</ele>
        <time>2016-04-08T09:26:35Z</time>
      </trkpt>
      <trkpt lat="43.50037" lon="5.95174">
        <ele>364.6</ele>
        <time>2016-04-08T09:27:03Z</time>
      </trkpt>
      <trkpt lat="43.50043" lon="5.95183">
        <ele>364.7</ele>
        <time>2016-04-08T09:27:46Z</time>
      </trkpt>
      <trkpt lat="43.5005" lon="5.95191">
        <ele>365</ele>
        <time>2016-04-08T09:28:08Z</time>
      </trkpt>
      <trkpt lat="43.50059" lon="5.95196">
        <ele>365</ele>
        <time>2016-04-08T09:28:32Z</time>
      </trkpt>
      <trkpt lat="43.50069" lon="5.95197">
        <ele>365.3</ele>
        <time>2016-04-08T09:28:42Z</time>
      </trkpt>
      <trkpt lat="43.50073" lon="5.95208">
        <ele>366.4</ele>
        <time>2016-04-08T09:28:56Z</time>
      </trkpt>
      <trkpt lat="43.50082" lon="5.95218">
        <ele>366.5</ele>
        <time>2016-04-08T09:29:06Z</time>
      </trkpt>
      <trkpt lat="43.50084" lon="5.9523">
        <ele>367.2</ele>
        <time>2016-04-08T09:29:41Z</time>
      </trkpt>
      <trkpt lat="43.50086" lon="5.95217">
        <ele>366.9</ele>
        <time>2016-04-08T09:30:27Z</time>
      </trkpt>
      <trkpt lat="43.50094" lon="5.95212">
        <ele>366.9</ele>
        <time>2016-04-08T09:31:15Z</time>
      </trkpt>
      <trkpt lat="43.50103" lon="5.95208">
        <ele>365.7</ele>
        <time>2016-04-08T09:32:50Z</time>
      </trkpt>
      <trkpt lat="43.50111" lon="5.95216">
        <ele>365.4</ele>
        <time>2016-04-08T09:33:03Z</time>
      </trkpt>
      <trkpt lat="43.50117" lon="5.95226">
        <ele>365.7</ele>
        <time>2016-04-08T09:33:13Z</time>
      </trkpt>
      <trkpt lat="43.50124" lon="5.95233">
        <ele>365.6</ele>
        <time>2016-04-08T09:33:22Z</time>
      </trkpt>
      <trkpt lat="43.50131" lon="5.95242">
        <ele>365.1</ele>
        <time>2016-04-08T09:33:33Z</time>
      </trkpt>
      <trkpt lat="43.50138" lon="5.95251">
        <ele>365</ele>
        <time>2016-04-08T09:33:42Z</time>
      </trkpt>
      <trkpt lat="43.50145" lon="5.95259">
        <ele>365</ele>
        <time>2016-04-08T09:33:52Z</time>
      </trkpt>
      <trkpt lat="43.50154" lon="5.95266">
        <ele>365.1</ele>
        <time>2016-04-08T09:33:57Z</time>
      </trkpt>
      <trkpt lat="43.50162" lon="5.95271">
        <ele>365</ele>
        <time>2016-04-08T09:34:13Z</time>
      </trkpt>
      <trkpt lat="43.50171" lon="5.95276">
        <ele>365.1</ele>
        <time>2016-04-08T09:34:22Z</time>
      </trkpt>
      <trkpt lat="43.50178" lon="5.95285">
        <ele>364.9</ele>
        <time>2016-04-08T09:34:31Z</time>
      </trkpt>
      <trkpt lat="43.50186" lon="5.95294">
        <ele>364.6</ele>
        <time>2016-04-08T09:34:41Z</time>
      </trkpt>
      <trkpt lat="43.50193" lon="5.95302">
        <ele>364.7</ele>
        <time>2016-04-08T09:35:01Z</time>
      </trkpt>
      <trkpt lat="43.502" lon="5.9531">
        <ele>364.9</ele>
        <time>2016-04-08T09:35:21Z</time>
      </trkpt>
      <trkpt lat="43.50208" lon="5.95318">
        <ele>365</ele>
        <time>2016-04-08T09:35:30Z</time>
      </trkpt>
      <trkpt lat="43.50214" lon="5.95326">
        <ele>365.6</ele>
        <time>2016-04-08T09:35:52Z</time>
      </trkpt>
      <trkpt lat="43.50223" lon="5.95329">
        <ele>364.8</ele>
        <time>2016-04-08T09:36:09Z</time>
      </trkpt>
      <trkpt lat="43.50232" lon="5.95335">
        <ele>364.8</ele>
        <time>2016-04-08T09:36:21Z</time>
      </trkpt>
      <trkpt lat="43.50239" lon="5.95344">
        <ele>364.7</ele>
        <time>2016-04-08T09:36:26Z</time>
      </trkpt>
      <trkpt lat="43.50246" lon="5.95354">
        <ele>364.7</ele>
        <time>2016-04-08T09:36:41Z</time>
      </trkpt>
      <trkpt lat="43.5025" lon="5.95365">
        <ele>364.6</ele>
        <time>2016-04-08T09:36:50Z</time>
      </trkpt>
      <trkpt lat="43.50255" lon="5.95377">
        <ele>364.3</ele>
        <time>2016-04-08T09:37:00Z</time>
      </trkpt>
      <trkpt lat="43.5026" lon="5.95387">
        <ele>364.4</ele>
        <time>2016-04-08T09:37:11Z</time>
      </trkpt>
      <trkpt lat="43.50265" lon="5.95398">
        <ele>364.8</ele>
        <time>2016-04-08T09:37:21Z</time>
      </trkpt>
      <trkpt lat="43.50273" lon="5.95406">
        <ele>364.7</ele>
        <time>2016-04-08T09:37:35Z</time>
      </trkpt>
      <trkpt lat="43.5028" lon="5.95415">
        <ele>364.7</ele>
        <time>2016-04-08T09:37:46Z</time>
      </trkpt>
      <trkpt lat="43.50286" lon="5.95426">
        <ele>364.8</ele>
        <time>2016-04-08T09:37:53Z</time>
      </trkpt>
      <trkpt lat="43.50294" lon="5.95433">
        <ele>364.9</ele>
        <time>2016-04-08T09:38:21Z</time>
      </trkpt>
      <trkpt lat="43.50302" lon="5.95441">
        <ele>365</ele>
        <time>2016-04-08T09:38:31Z</time>
      </trkpt>
      <trkpt lat="43.50307" lon="5.95451">
        <ele>365.3</ele>
        <time>2016-04-08T09:38:41Z</time>
      </trkpt>
      <trkpt lat="43.50314" lon="5.95462">
        <ele>362.7</ele>
        <time>2016-04-08T09:38:48Z</time>
      </trkpt>
      <trkpt lat="43.50322" lon="5.9547">
        <ele>364.6</ele>
        <time>2016-04-08T09:39:02Z</time>
      </trkpt>
      <trkpt lat="43.50329" lon="5.95478">
        <ele>364.8</ele>
        <time>2016-04-08T09:39:15Z</time>
      </trkpt>
      <trkpt lat="43.50337" lon="5.95486">
        <ele>364.6</ele>
        <time>2016-04-08T09:39:29Z</time>
      </trkpt>
      <trkpt lat="43.50344" lon="5.95494">
        <ele>364.4</ele>
        <time>2016-04-08T09:39:36Z</time>
      </trkpt>
      <trkpt lat="43.5035" lon="5.95505">
        <ele>364.2</ele>
        <time>2016-04-08T09:39:46Z</time>
      </trkpt>
      <trkpt lat="43.50359" lon="5.95509">
        <ele>364.4</ele>
        <time>2016-04-08T09:39:57Z</time>
      </trkpt>
      <trkpt lat="43.50367" lon="5.95516">
        <ele>364.3</ele>
        <time>2016-04-08T09:40:05Z</time>
      </trkpt>
      <trkpt lat="43.50375" lon="5.95521">
        <ele>364.3</ele>
        <time>2016-04-08T09:40:14Z</time>
      </trkpt>
      <trkpt lat="43.50384" lon="5.9553">
        <ele>364.4</ele>
        <time>2016-04-08T09:40:27Z</time>
      </trkpt>
      <trkpt lat="43.50393" lon="5.95536">
        <ele>364.2</ele>
        <time>2016-04-08T09:40:34Z</time>
      </trkpt>
      <trkpt lat="43.504" lon="5.95543">
        <ele>364.4</ele>
        <time>2016-04-08T09:40:43Z</time>
      </trkpt>
      <trkpt lat="43.50409" lon="5.95548">
        <ele>364.6</ele>
        <time>2016-04-08T09:40:55Z</time>
      </trkpt>
      <trkpt lat="43.50419" lon="5.9555">
        <ele>365</ele>
        <time>2016-04-08T09:41:06Z</time>
      </trkpt>
      <trkpt lat="43.50428" lon="5.95553">
        <ele>365.3</ele>
        <time>2016-04-08T09:41:16Z</time>
      </trkpt>
      <trkpt lat="43.50438" lon="5.95555">
        <ele>365.1</ele>
        <time>2016-04-08T09:41:26Z</time>
      </trkpt>
      <trkpt lat="43.50448" lon="5.95556">
        <ele>365</ele>
        <time>2016-04-08T09:41:34Z</time>
      </trkpt>
      <trkpt lat="43.50458" lon="5.95558">
        <ele>364.8</ele>
        <time>2016-04-08T09:41:42Z</time>
      </trkpt>
      <trkpt lat="43.50467" lon="5.95563">
        <ele>364.8</ele>
        <time>2016-04-08T09:41:53Z</time>
      </trkpt>
      <trkpt lat="43.50475" lon="5.95571">
        <ele>364.6</ele>
        <time>2016-04-08T09:42:05Z</time>
      </trkpt>
      <trkpt lat="43.50484" lon="5.95572">
        <ele>364.1</ele>
        <time>2016-04-08T09:42:18Z</time>
      </trkpt>
      <trkpt lat="43.5049" lon="5.95583">
        <ele>364.2</ele>
        <time>2016-04-08T09:42:22Z</time>
      </trkpt>
      <trkpt lat="43.50499" lon="5.95586">
        <ele>364.3</ele>
        <time>2016-04-08T09:42:31Z</time>
      </trkpt>
      <trkpt lat="43.50508" lon="5.95588">
        <ele>364</ele>
        <time>2016-04-08T09:42:40Z</time>
      </trkpt>
      <trkpt lat="43.50517" lon="5.95593">
        <ele>364.3</ele>
        <time>2016-04-08T09:42:48Z</time>
      </trkpt>
      <trkpt lat="43.50526" lon="5.95597">
        <ele>364</ele>
        <time>2016-04-08T09:43:00Z</time>
      </trkpt>
      <trkpt lat="43.50532" lon="5.95606">
        <ele>364.2</ele>
        <time>2016-04-08T09:43:29Z</time>
      </trkpt>
      <trkpt lat="43.50542" lon="5.95609">
        <ele>364.2</ele>
        <time>2016-04-08T09:43:42Z</time>
      </trkpt>
      <trkpt lat="43.50551" lon="5.95611">
        <ele>363.9</ele>
        <time>2016-04-08T09:43:52Z</time>
      </trkpt>
      <trkpt lat="43.5056" lon="5.95616">
        <ele>364</ele>
        <time>2016-04-08T09:44:02Z</time>
      </trkpt>
      <trkpt lat="43.50569" lon="5.95616">
        <ele>363.9</ele>
        <time>2016-04-08T09:44:11Z</time>
      </trkpt>
      <trkpt lat="43.50578" lon="5.95621">
        <ele>363.9</ele>
        <time>2016-04-08T09:44:20Z</time>
      </trkpt>
      <trkpt lat="43.50587" lon="5.95626">
        <ele>363.9</ele>
        <time>2016-04-08T09:44:30Z</time>
      </trkpt>
      <trkpt lat="43.50595" lon="5.9563">
        <ele>364</ele>
        <time>2016-04-08T09:44:39Z</time>
      </trkpt>
      <trkpt lat="43.50604" lon="5.95633">
        <ele>363.8</ele>
        <time>2016-04-08T09:44:50Z</time>
      </trkpt>
      <trkpt lat="43.50613" lon="5.95634">
        <ele>364</ele>
        <time>2016-04-08T09:45:06Z</time>
      </trkpt>
      <trkpt lat="43.50622" lon="5.95635">
        <ele>364.2</ele>
        <time>2016-04-08T09:45:14Z</time>
      </trkpt>
      <trkpt lat="43.50631" lon="5.9564">
        <ele>363.8</ele>
        <time>2016-04-08T09:45:56Z</time>
      </trkpt>
      <trkpt lat="43.50641" lon="5.9564">
        <ele>364</ele>
        <time>2016-04-08T09:46:05Z</time>
      </trkpt>
      <trkpt lat="43.50651" lon="5.95638">
        <ele>364.1</ele>
        <time>2016-04-08T09:46:16Z</time>
      </trkpt>
      <trkpt lat="43.5066" lon="5.95634">
        <ele>364.4</ele>
        <time>2016-04-08T09:46:30Z</time>
      </trkpt>
      <trkpt lat="43.50669" lon="5.95637">
        <ele>364.4</ele>
        <time>2016-04-08T09:46:38Z</time>
      </trkpt>
      <trkpt lat="43.50678" lon="5.95634">
        <ele>364.3</ele>
        <time>2016-04-08T09:46:49Z</time>
      </trkpt>
      <trkpt lat="43.50688" lon="5.95635">
        <ele>364</ele>
        <time>2016-04-08T09:47:02Z</time>
      </trkpt>
      <trkpt lat="43.50697" lon="5.95639">
        <ele>364.1</ele>
        <time>2016-04-08T09:47:12Z</time>
      </trkpt>
      <trkpt lat="43.50706" lon="5.95637">
        <ele>364</ele>
        <time>2016-04-08T09:47:19Z</time>
      </trkpt>
      <trkpt lat="43.50715" lon="5.95638">
        <ele>363.4</ele>
        <time>2016-04-08T09:47:31Z</time>
      </trkpt>
      <trkpt lat="43.50725" lon="5.95638">
        <ele>363</ele>
        <time>2016-04-08T09:47:40Z</time>
      </trkpt>
      <trkpt lat="43.50734" lon="5.95639">
        <ele>363.8</ele>
        <time>2016-04-08T09:47:49Z</time>
      </trkpt>
      <trkpt lat="43.50743" lon="5.95645">
        <ele>363.7</ele>
        <time>2016-04-08T09:47:58Z</time>
      </trkpt>
      <trkpt lat="43.50752" lon="5.95649">
        <ele>363.6</ele>
        <time>2016-04-08T09:48:07Z</time>
      </trkpt>
      <trkpt lat="43.50761" lon="5.95647">
        <ele>364.1</ele>
        <time>2016-04-08T09:48:18Z</time>
      </trkpt>
      <trkpt lat="43.50772" lon="5.95649">
        <ele>363.9</ele>
        <time>2016-04-08T09:48:28Z</time>
      </trkpt>
      <trkpt lat="43.50781" lon="5.95653">
        <ele>364</ele>
        <time>2016-04-08T09:48:52Z</time>
      </trkpt>
      <trkpt lat="43.5079" lon="5.95653">
        <ele>363.5</ele>
        <time>2016-04-08T09:49:42Z</time>
      </trkpt>
      <trkpt lat="43.50799" lon="5.95653">
        <ele>363.3</ele>
        <time>2016-04-08T09:50:08Z</time>
      </trkpt>
      <trkpt lat="43.50808" lon="5.95648">
        <ele>363.5</ele>
        <time>2016-04-08T09:50:24Z</time>
      </trkpt>
      <trkpt lat="43.50817" lon="5.95649">
        <ele>363.8</ele>
        <time>2016-04-08T09:50:38Z</time>
      </trkpt>
      <trkpt lat="43.50828" lon="5.95647">
        <ele>363.9</ele>
        <time>2016-04-08T09:50:57Z</time>
      </trkpt>
      <trkpt lat="43.50837" lon="5.95648">
        <ele>364</ele>
        <time>2016-04-08T09:51:07Z</time>
      </trkpt>
      <trkpt lat="43.50847" lon="5.95649">
        <ele>364.1</ele>
        <time>2016-04-08T09:51:16Z</time>
      </trkpt>
      <trkpt lat="43.50856" lon="5.95644">
        <ele>363.8</ele>
        <time>2016-04-08T09:51:33Z</time>
      </trkpt>
      <trkpt lat="43.50866" lon="5.95644">
        <ele>363.6</ele>
        <time>2016-04-08T09:51:44Z</time>
      </trkpt>
      <trkpt lat="43.50875" lon="5.95644">
        <ele>363.9</ele>
        <time>2016-04-08T09:51:55Z</time>
      </trkpt>
      <trkpt lat="43.50885" lon="5.95647">
        <ele>363.7</ele>
        <time>2016-04-08T09:52:10Z</time>
      </trkpt>
      <trkpt lat="43.50895" lon="5.95649">
        <ele>364.1</ele>
        <time>2016-04-08T09:52:25Z</time>
      </trkpt>
      <trkpt lat="43.50903" lon="5.95659">
        <ele>364</ele>
        <time>2016-04-08T09:52:33Z</time>
      </trkpt>
      <trkpt lat="43.50911" lon="5.95653">
        <ele>364.2</ele>
        <time>2016-04-08T09:53:04Z</time>
      </trkpt>
      <trkpt lat="43.50921" lon="5.95651">
        <ele>364.3</ele>
        <time>2016-04-08T09:53:13Z</time>
      </trkpt>
      <trkpt lat="43.5093" lon="5.95647">
        <ele>363.8</ele>
        <time>2016-04-08T09:53:25Z</time>
      </trkpt>
      <trkpt lat="43.5094" lon="5.95647">
        <ele>363.9</ele>
        <time>2016-04-08T09:53:35Z</time>
      </trkpt>
      <trkpt lat="43.50949" lon="5.95649">
        <ele>364.2</ele>
        <time>2016-04-08T09:53:50Z</time>
      </trkpt>
      <trkpt lat="43.50958" lon="5.95652">
        <ele>364.2</ele>
        <time>2016-04-08T09:53:59Z</time>
      </trkpt>
      <trkpt lat="43.50967" lon="5.95656">
        <ele>364.4</ele>
        <time>2016-04-08T09:54:13Z</time>
      </trkpt>
      <trkpt lat="43.50976" lon="5.95662">
        <ele>364.6</ele>
        <time>2016-04-08T09:54:24Z</time>
      </trkpt>
      <trkpt lat="43.50985" lon="5.95663">
        <ele>364.4</ele>
        <time>2016-04-08T09:54:38Z</time>
      </trkpt>
      <trkpt lat="43.50994" lon="5.95666">
        <ele>364.6</ele>
        <time>2016-04-08T09:54:47Z</time>
      </trkpt>
      <trkpt lat="43.51003" lon="5.95669">
        <ele>364.7</ele>
        <time>2016-04-08T09:54:56Z</time>
      </trkpt>
      <trkpt lat="43.51012" lon="5.95673">
        <ele>364.5</ele>
        <time>2016-04-08T09:55:06Z</time>
      </trkpt>
      <trkpt lat="43.51021" lon="5.9568">
        <ele>364.2</ele>
        <time>2016-04-08T09:55:15Z</time>
      </trkpt>
      <trkpt lat="43.5103" lon="5.95686">
        <ele>364.3</ele>
        <time>2016-04-08T09:55:27Z</time>
      </trkpt>
      <trkpt lat="43.5104" lon="5.95685">
        <ele>364.1</ele>
        <time>2016-04-08T09:55:36Z</time>
      </trkpt>
      <trkpt lat="43.51049" lon="5.95688">
        <ele>364.5</ele>
        <time>2016-04-08T09:55:48Z</time>
      </trkpt>
      <trkpt lat="43.51059" lon="5.95696">
        <ele>365.1</ele>
        <time>2016-04-08T09:55:58Z</time>
      </trkpt>
      <trkpt lat="43.51068" lon="5.95701">
        <ele>364.7</ele>
        <time>2016-04-08T09:56:04Z</time>
      </trkpt>
      <trkpt lat="43.51077" lon="5.95705">
        <ele>365</ele>
        <time>2016-04-08T09:56:30Z</time>
      </trkpt>
      <trkpt lat="43.51086" lon="5.95707">
        <ele>366.8</ele>
        <time>2016-04-08T09:57:27Z</time>
      </trkpt>
      <trkpt lat="43.5109" lon="5.95696">
        <ele>366.2</ele>
        <time>2016-04-08T09:57:38Z</time>
      </trkpt>
      <trkpt lat="43.51093" lon="5.95683">
        <ele>365.5</ele>
        <time>2016-04-08T09:57:49Z</time>
      </trkpt>
      <trkpt lat="43.51102" lon="5.9568">
        <ele>365.2</ele>
        <time>2016-04-08T09:58:28Z</time>
      </trkpt>
      <trkpt lat="43.51111" lon="5.95675">
        <ele>366</ele>
        <time>2016-04-08T09:58:39Z</time>
      </trkpt>
      <trkpt lat="43.5112" lon="5.95671">
        <ele>365.4</ele>
        <time>2016-04-08T09:58:49Z</time>
      </trkpt>
      <trkpt lat="43.5113" lon="5.95672">
        <ele>364.8</ele>
        <time>2016-04-08T09:58:58Z</time>
      </trkpt>
      <trkpt lat="43.5114" lon="5.95671">
        <ele>366.1</ele>
        <time>2016-04-08T09:59:10Z</time>
      </trkpt>
      <trkpt lat="43.51149" lon="5.95669">
        <ele>367.5</ele>
        <time>2016-04-08T09:59:22Z</time>
      </trkpt>
      <trkpt lat="43.51159" lon="5.95669">
        <ele>367.9</ele>
        <time>2016-04-08T09:59:32Z</time>
      </trkpt>
      <trkpt lat="43.51168" lon="5.95667">
        <ele>368.2</ele>
        <time>2016-04-08T09:59:41Z</time>
      </trkpt>
      <trkpt lat="43.51177" lon="5.95665">
        <ele>367.7</ele>
        <time>2016-04-08T09:59:50Z</time>
      </trkpt>
      <trkpt lat="43.51187" lon="5.95662">
        <ele>367.7</ele>
        <time>2016-04-08T09:59:59Z</time>
      </trkpt>
      <trkpt lat="43.51193" lon="5.95653">
        <ele>368</ele>
        <time>2016-04-08T10:00:10Z</time>
      </trkpt>
      <trkpt lat="43.51196" lon="5.9564">
        <ele>367.5</ele>
        <time>2016-04-08T10:00:21Z</time>
      </trkpt>
      <trkpt lat="43.51194" lon="5.95627">
        <ele>366.8</ele>
        <time>2016-04-08T10:00:29Z</time>
      </trkpt>
      <trkpt lat="43.51193" lon="5.95614">
        <ele>366.5</ele>
        <time>2016-04-08T10:00:40Z</time>
      </trkpt>
      <trkpt lat="43.51194" lon="5.95601">
        <ele>366.7</ele>
        <time>2016-04-08T10:00:49Z</time>
      </trkpt>
      <trkpt lat="43.51198" lon="5.95589">
        <ele>366.8</ele>
        <time>2016-04-08T10:01:00Z</time>
      </trkpt>
      <trkpt lat="43.51204" lon="5.95579">
        <ele>367.6</ele>
        <time>2016-04-08T10:01:11Z</time>
      </trkpt>
      <trkpt lat="43.51213" lon="5.95582">
        <ele>368.6</ele>
        <time>2016-04-08T10:01:24Z</time>
      </trkpt>
      <trkpt lat="43.5122" lon="5.9559">
        <ele>368.8</ele>
        <time>2016-04-08T10:01:36Z</time>
      </trkpt>
      <trkpt lat="43.51211" lon="5.95591">
        <ele>369.3</ele>
        <time>2016-04-08T10:16:44Z</time>
      </trkpt>
      <trkpt lat="43.5122" lon="5.95597">
        <ele>369.2</ele>
        <time>2016-04-08T10:18:24Z</time>
      </trkpt>
      <trkpt lat="43.51211" lon="5.95593">
        <ele>369.5</ele>
        <time>2016-04-08T10:19:52Z</time>
      </trkpt>
      <trkpt lat="43.5122" lon="5.95596">
        <ele>369.3</ele>
        <time>2016-04-08T10:22:13Z</time>
      </trkpt>
      <trkpt lat="43.51213" lon="5.95604">
        <ele>369.7</ele>
        <time>2016-04-08T10:34:07Z</time>
      </trkpt>
      <trkpt lat="43.5122" lon="5.95596">
        <ele>368.8</ele>
        <time>2016-04-08T10:35:03Z</time>
      </trkpt>
      <trkpt lat="43.51212" lon="5.95591">
        <ele>373.3</ele>
        <time>2016-04-08T10:58:31Z</time>
      </trkpt>
      <trkpt lat="43.51205" lon="5.95582">
        <ele>373.6</ele>
        <time>2016-04-08T10:58:46Z</time>
      </trkpt>
      <trkpt lat="43.51198" lon="5.9559">
        <ele>372.1</ele>
        <time>2016-04-08T10:59:00Z</time>
      </trkpt>
      <trkpt lat="43.51196" lon="5.95603">
        <ele>371.2</ele>
        <time>2016-04-08T10:59:09Z</time>
      </trkpt>
      <trkpt lat="43.51197" lon="5.95617">
        <ele>371.4</ele>
        <time>2016-04-08T10:59:20Z</time>
      </trkpt>
      <trkpt lat="43.51195" lon="5.9563">
        <ele>372.3</ele>
        <time>2016-04-08T10:59:29Z</time>
      </trkpt>
      <trkpt lat="43.51194" lon="5.95642">
        <ele>372.1</ele>
        <time>2016-04-08T10:59:38Z</time>
      </trkpt>
      <trkpt lat="43.51188" lon="5.95653">
        <ele>372.6</ele>
        <time>2016-04-08T11:00:03Z</time>
      </trkpt>
      <trkpt lat="43.5118" lon="5.95659">
        <ele>372.2</ele>
        <time>2016-04-08T11:00:58Z</time>
      </trkpt>
      <trkpt lat="43.51171" lon="5.95662">
        <ele>372.3</ele>
        <time>2016-04-08T11:01:08Z</time>
      </trkpt>
      <trkpt lat="43.51161" lon="5.95664">
        <ele>371.7</ele>
        <time>2016-04-08T11:01:23Z</time>
      </trkpt>
      <trkpt lat="43.51152" lon="5.95666">
        <ele>371.9</ele>
        <time>2016-04-08T11:01:37Z</time>
      </trkpt>
      <trkpt lat="43.51143" lon="5.95672">
        <ele>371</ele>
        <time>2016-04-08T11:01:49Z</time>
      </trkpt>
      <trkpt lat="43.51133" lon="5.95673">
        <ele>371.9</ele>
        <time>2016-04-08T11:02:01Z</time>
      </trkpt>
      <trkpt lat="43.51123" lon="5.95675">
        <ele>371.4</ele>
        <time>2016-04-08T11:02:10Z</time>
      </trkpt>
      <trkpt lat="43.51114" lon="5.95676">
        <ele>371.1</ele>
        <time>2016-04-08T11:02:20Z</time>
      </trkpt>
      <trkpt lat="43.51104" lon="5.95679">
        <ele>370.6</ele>
        <time>2016-04-08T11:02:31Z</time>
      </trkpt>
      <trkpt lat="43.51097" lon="5.95688">
        <ele>370.6</ele>
        <time>2016-04-08T11:02:44Z</time>
      </trkpt>
      <trkpt lat="43.51092" lon="5.95699">
        <ele>371</ele>
        <time>2016-04-08T11:02:53Z</time>
      </trkpt>
      <trkpt lat="43.51092" lon="5.95712">
        <ele>372.4</ele>
        <time>2016-04-08T11:03:10Z</time>
      </trkpt>
      <trkpt lat="43.5109" lon="5.95724">
        <ele>372.8</ele>
        <time>2016-04-08T11:03:26Z</time>
      </trkpt>
      <trkpt lat="43.51091" lon="5.95737">
        <ele>372.6</ele>
        <time>2016-04-08T11:03:38Z</time>
      </trkpt>
      <trkpt lat="43.51091" lon="5.9575">
        <ele>372.3</ele>
        <time>2016-04-08T11:03:50Z</time>
      </trkpt>
      <trkpt lat="43.51098" lon="5.95758">
        <ele>372.7</ele>
        <time>2016-04-08T11:04:14Z</time>
      </trkpt>
      <trkpt lat="43.51095" lon="5.9577">
        <ele>372</ele>
        <time>2016-04-08T11:05:09Z</time>
      </trkpt>
      <trkpt lat="43.51103" lon="5.95779">
        <ele>372.1</ele>
        <time>2016-04-08T11:05:19Z</time>
      </trkpt>
      <trkpt lat="43.51108" lon="5.95791">
        <ele>372</ele>
        <time>2016-04-08T11:05:27Z</time>
      </trkpt>
      <trkpt lat="43.51109" lon="5.95805">
        <ele>372.4</ele>
        <time>2016-04-08T11:05:36Z</time>
      </trkpt>
      <trkpt lat="43.51106" lon="5.95818">
        <ele>372.4</ele>
        <time>2016-04-08T11:05:43Z</time>
      </trkpt>
      <trkpt lat="43.51105" lon="5.95831">
        <ele>372.4</ele>
        <time>2016-04-08T11:05:52Z</time>
      </trkpt>
      <trkpt lat="43.51105" lon="5.95844">
        <ele>372.4</ele>
        <time>2016-04-08T11:05:59Z</time>
      </trkpt>
      <trkpt lat="43.51102" lon="5.95857">
        <ele>372.4</ele>
        <time>2016-04-08T11:06:07Z</time>
      </trkpt>
      <trkpt lat="43.51097" lon="5.95868">
        <ele>372.4</ele>
        <time>2016-04-08T11:06:16Z</time>
      </trkpt>
      <trkpt lat="43.51099" lon="5.95882">
        <ele>372.9</ele>
        <time>2016-04-08T11:06:29Z</time>
      </trkpt>
      <trkpt lat="43.51096" lon="5.95895">
        <ele>372.9</ele>
        <time>2016-04-08T11:06:36Z</time>
      </trkpt>
      <trkpt lat="43.51092" lon="5.95908">
        <ele>372.9</ele>
        <time>2016-04-08T11:06:47Z</time>
      </trkpt>
      <trkpt lat="43.51092" lon="5.95921">
        <ele>373.1</ele>
        <time>2016-04-08T11:06:54Z</time>
      </trkpt>
      <trkpt lat="43.51091" lon="5.95935">
        <ele>373.3</ele>
        <time>2016-04-08T11:07:01Z</time>
      </trkpt>
      <trkpt lat="43.51093" lon="5.95947">
        <ele>373.5</ele>
        <time>2016-04-08T11:07:09Z</time>
      </trkpt>
      <trkpt lat="43.51093" lon="5.95959">
        <ele>373.7</ele>
        <time>2016-04-08T11:07:16Z</time>
      </trkpt>
      <trkpt lat="43.51095" lon="5.95972">
        <ele>373.5</ele>
        <time>2016-04-08T11:07:25Z</time>
      </trkpt>
      <trkpt lat="43.51097" lon="5.95985">
        <ele>373.4</ele>
        <time>2016-04-08T11:07:35Z</time>
      </trkpt>
      <trkpt lat="43.51097" lon="5.95998">
        <ele>373.4</ele>
        <time>2016-04-08T11:07:44Z</time>
      </trkpt>
      <trkpt lat="43.51098" lon="5.96012">
        <ele>373.3</ele>
        <time>2016-04-08T11:07:55Z</time>
      </trkpt>
      <trkpt lat="43.51102" lon="5.96022">
        <ele>373.3</ele>
        <time>2016-04-08T11:08:03Z</time>
      </trkpt>
      <trkpt lat="43.51107" lon="5.96034">
        <ele>373.4</ele>
        <time>2016-04-08T11:08:15Z</time>
      </trkpt>
      <trkpt lat="43.51112" lon="5.96046">
        <ele>373.3</ele>
        <time>2016-04-08T11:08:24Z</time>
      </trkpt>
      <trkpt lat="43.51117" lon="5.96058">
        <ele>373.3</ele>
        <time>2016-04-08T11:08:31Z</time>
      </trkpt>
      <trkpt lat="43.5112" lon="5.96072">
        <ele>373.5</ele>
        <time>2016-04-08T11:08:39Z</time>
      </trkpt>
      <trkpt lat="43.51123" lon="5.96084">
        <ele>373.8</ele>
        <time>2016-04-08T11:08:48Z</time>
      </trkpt>
      <trkpt lat="43.51125" lon="5.96096">
        <ele>374</ele>
        <time>2016-04-08T11:08:57Z</time>
      </trkpt>
      <trkpt lat="43.51129" lon="5.96107">
        <ele>374.4</ele>
        <time>2016-04-08T11:09:06Z</time>
      </trkpt>
      <trkpt lat="43.51134" lon="5.96118">
        <ele>374.5</ele>
        <time>2016-04-08T11:09:14Z</time>
      </trkpt>
      <trkpt lat="43.51138" lon="5.9613">
        <ele>375.2</ele>
        <time>2016-04-08T11:09:25Z</time>
      </trkpt>
      <trkpt lat="43.51147" lon="5.96136">
        <ele>375.8</ele>
        <time>2016-04-08T11:09:33Z</time>
      </trkpt>
      <trkpt lat="43.51156" lon="5.96138">
        <ele>376.3</ele>
        <time>2016-04-08T11:09:41Z</time>
      </trkpt>
      <trkpt lat="43.51165" lon="5.96142">
        <ele>377.3</ele>
        <time>2016-04-08T11:09:49Z</time>
      </trkpt>
      <trkpt lat="43.51173" lon="5.96149">
        <ele>377.9</ele>
        <time>2016-04-08T11:09:57Z</time>
      </trkpt>
      <trkpt lat="43.51181" lon="5.96159">
        <ele>379.1</ele>
        <time>2016-04-08T11:10:19Z</time>
      </trkpt>
      <trkpt lat="43.5119" lon="5.96163">
        <ele>379</ele>
        <time>2016-04-08T11:10:34Z</time>
      </trkpt>
      <trkpt lat="43.51197" lon="5.96172">
        <ele>379.6</ele>
        <time>2016-04-08T11:10:53Z</time>
      </trkpt>
      <trkpt lat="43.51203" lon="5.96181">
        <ele>379.5</ele>
        <time>2016-04-08T11:11:10Z</time>
      </trkpt>
      <trkpt lat="43.51211" lon="5.96188">
        <ele>379.7</ele>
        <time>2016-04-08T11:11:20Z</time>
      </trkpt>
      <trkpt lat="43.51215" lon="5.96199">
        <ele>379.6</ele>
        <time>2016-04-08T11:11:53Z</time>
      </trkpt>
      <trkpt lat="43.51221" lon="5.96209">
        <ele>379.6</ele>
        <time>2016-04-08T11:12:04Z</time>
      </trkpt>
      <trkpt lat="43.5123" lon="5.96213">
        <ele>378.3</ele>
        <time>2016-04-08T11:12:14Z</time>
      </trkpt>
      <trkpt lat="43.51239" lon="5.96218">
        <ele>378.9</ele>
        <time>2016-04-08T11:12:24Z</time>
      </trkpt>
      <trkpt lat="43.51247" lon="5.96223">
        <ele>378.8</ele>
        <time>2016-04-08T11:12:30Z</time>
      </trkpt>
      <trkpt lat="43.51253" lon="5.96233">
        <ele>378.3</ele>
        <time>2016-04-08T11:12:39Z</time>
      </trkpt>
      <trkpt lat="43.51246" lon="5.96242">
        <ele>378.2</ele>
        <time>2016-04-08T11:12:49Z</time>
      </trkpt>
      <trkpt lat="43.51243" lon="5.96255">
        <ele>378.1</ele>
        <time>2016-04-08T11:13:32Z</time>
      </trkpt>
      <trkpt lat="43.5124" lon="5.96268">
        <ele>376.9</ele>
        <time>2016-04-08T11:15:52Z</time>
      </trkpt>
      <trkpt lat="43.51227" lon="5.96268">
        <ele>372</ele>
        <time>2016-04-08T11:16:48Z</time>
      </trkpt>
      <trkpt lat="43.5123" lon="5.96255">
        <ele>371.6</ele>
        <time>2016-04-08T11:17:07Z</time>
      </trkpt>
      <trkpt lat="43.51237" lon="5.96247">
        <ele>371.1</ele>
        <time>2016-04-08T11:17:18Z</time>
      </trkpt>
      <trkpt lat="43.51246" lon="5.96244">
        <ele>370.9</ele>
        <time>2016-04-08T11:17:43Z</time>
      </trkpt>
      <trkpt lat="43.51256" lon="5.96256">
        <ele>371</ele>
        <time>2016-04-08T11:18:23Z</time>
      </trkpt>
      <trkpt lat="43.5127" lon="5.96264">
        <ele>372.3</ele>
        <time>2016-04-08T11:18:49Z</time>
      </trkpt>
      <trkpt lat="43.51261" lon="5.96263">
        <ele>373.1</ele>
        <time>2016-04-08T11:19:05Z</time>
      </trkpt>
      <trkpt lat="43.51252" lon="5.96269">
        <ele>373.5</ele>
        <time>2016-04-08T11:19:15Z</time>
      </trkpt>
      <trkpt lat="43.51253" lon="5.96282">
        <ele>371.1</ele>
        <time>2016-04-08T11:21:23Z</time>
      </trkpt>
      <trkpt lat="43.51244" lon="5.96286">
        <ele>371</ele>
        <time>2016-04-08T11:22:19Z</time>
      </trkpt>
      <trkpt lat="43.51252" lon="5.96291">
        <ele>371</ele>
        <time>2016-04-08T11:22:38Z</time>
      </trkpt>
      <trkpt lat="43.51261" lon="5.96294">
        <ele>371.1</ele>
        <time>2016-04-08T11:22:54Z</time>
      </trkpt>
      <trkpt lat="43.51252" lon="5.96293">
        <ele>371</ele>
        <time>2016-04-08T11:23:57Z</time>
      </trkpt>
      <trkpt lat="43.51245" lon="5.96285">
        <ele>371.6</ele>
        <time>2016-04-08T11:24:15Z</time>
      </trkpt>
      <trkpt lat="43.51238" lon="5.96276">
        <ele>376</ele>
        <time>2016-04-08T11:24:55Z</time>
      </trkpt>
      <trkpt lat="43.5123" lon="5.96269">
        <ele>378.5</ele>
        <time>2016-04-08T11:25:08Z</time>
      </trkpt>
      <trkpt lat="43.51232" lon="5.96256">
        <ele>376.7</ele>
        <time>2016-04-08T11:25:47Z</time>
      </trkpt>
      <trkpt lat="43.51225" lon="5.96247">
        <ele>379.1</ele>
        <time>2016-04-08T11:28:17Z</time>
      </trkpt>
      <trkpt lat="43.51217" lon="5.96239">
        <ele>379.2</ele>
        <time>2016-04-08T11:28:34Z</time>
      </trkpt>
      <trkpt lat="43.5121" lon="5.96233">
        <ele>379.6</ele>
        <time>2016-04-08T11:28:43Z</time>
      </trkpt>
      <trkpt lat="43.51201" lon="5.96226">
        <ele>379.3</ele>
        <time>2016-04-08T11:28:52Z</time>
      </trkpt>
      <trkpt lat="43.51193" lon="5.9622">
        <ele>379.3</ele>
        <time>2016-04-08T11:29:02Z</time>
      </trkpt>
      <trkpt lat="43.51186" lon="5.96214">
        <ele>379.9</ele>
        <time>2016-04-08T11:29:13Z</time>
      </trkpt>
      <trkpt lat="43.51177" lon="5.96208">
        <ele>379</ele>
        <time>2016-04-08T11:29:23Z</time>
      </trkpt>
      <trkpt lat="43.51169" lon="5.962">
        <ele>378.6</ele>
        <time>2016-04-08T11:29:34Z</time>
      </trkpt>
      <trkpt lat="43.51162" lon="5.96192">
        <ele>378.2</ele>
        <time>2016-04-08T11:29:43Z</time>
      </trkpt>
      <trkpt lat="43.51154" lon="5.96185">
        <ele>378.1</ele>
        <time>2016-04-08T11:29:52Z</time>
      </trkpt>
      <trkpt lat="43.51146" lon="5.96178">
        <ele>377.7</ele>
        <time>2016-04-08T11:30:01Z</time>
      </trkpt>
      <trkpt lat="43.51139" lon="5.9617">
        <ele>377.4</ele>
        <time>2016-04-08T11:30:12Z</time>
      </trkpt>
      <trkpt lat="43.51131" lon="5.96162">
        <ele>377.2</ele>
        <time>2016-04-08T11:30:24Z</time>
      </trkpt>
      <trkpt lat="43.51121" lon="5.96163">
        <ele>376.6</ele>
        <time>2016-04-08T11:30:46Z</time>
      </trkpt>
      <trkpt lat="43.51114" lon="5.96171">
        <ele>376.2</ele>
        <time>2016-04-08T11:30:54Z</time>
      </trkpt>
      <trkpt lat="43.51106" lon="5.96178">
        <ele>376.2</ele>
        <time>2016-04-08T11:31:04Z</time>
      </trkpt>
      <trkpt lat="43.51101" lon="5.96168">
        <ele>375.3</ele>
        <time>2016-04-08T11:31:32Z</time>
      </trkpt>
      <trkpt lat="43.51105" lon="5.96157">
        <ele>373.9</ele>
        <time>2016-04-08T11:31:42Z</time>
      </trkpt>
      <trkpt lat="43.51104" lon="5.96144">
        <ele>372.6</ele>
        <time>2016-04-08T11:31:54Z</time>
      </trkpt>
      <trkpt lat="43.511" lon="5.96131">
        <ele>372.9</ele>
        <time>2016-04-08T11:32:03Z</time>
      </trkpt>
      <trkpt lat="43.51096" lon="5.9612">
        <ele>372.7</ele>
        <time>2016-04-08T11:32:11Z</time>
      </trkpt>
      <trkpt lat="43.51092" lon="5.96107">
        <ele>372.9</ele>
        <time>2016-04-08T11:32:21Z</time>
      </trkpt>
      <trkpt lat="43.51089" lon="5.96094">
        <ele>373.3</ele>
        <time>2016-04-08T11:32:34Z</time>
      </trkpt>
      <trkpt lat="43.51084" lon="5.96083">
        <ele>373.5</ele>
        <time>2016-04-08T11:32:44Z</time>
      </trkpt>
      <trkpt lat="43.51081" lon="5.9607">
        <ele>374.2</ele>
        <time>2016-04-08T11:32:54Z</time>
      </trkpt>
      <trkpt lat="43.51078" lon="5.96058">
        <ele>374.3</ele>
        <time>2016-04-08T11:33:03Z</time>
      </trkpt>
      <trkpt lat="43.51073" lon="5.96046">
        <ele>374.2</ele>
        <time>2016-04-08T11:33:12Z</time>
      </trkpt>
      <trkpt lat="43.51073" lon="5.96034">
        <ele>374.1</ele>
        <time>2016-04-08T11:33:25Z</time>
      </trkpt>
      <trkpt lat="43.51068" lon="5.96023">
        <ele>374.3</ele>
        <time>2016-04-08T11:33:40Z</time>
      </trkpt>
      <trkpt lat="43.51068" lon="5.9601">
        <ele>374.2</ele>
        <time>2016-04-08T11:33:48Z</time>
      </trkpt>
      <trkpt lat="43.51065" lon="5.95997">
        <ele>373.9</ele>
        <time>2016-04-08T11:33:59Z</time>
      </trkpt>
      <trkpt lat="43.51064" lon="5.95983">
        <ele>373.8</ele>
        <time>2016-04-08T11:34:07Z</time>
      </trkpt>
      <trkpt lat="43.51061" lon="5.9597">
        <ele>373.9</ele>
        <time>2016-04-08T11:34:15Z</time>
      </trkpt>
      <trkpt lat="43.51059" lon="5.95957">
        <ele>373.6</ele>
        <time>2016-04-08T11:34:24Z</time>
      </trkpt>
      <trkpt lat="43.51058" lon="5.95943">
        <ele>373.5</ele>
        <time>2016-04-08T11:34:32Z</time>
      </trkpt>
      <trkpt lat="43.51057" lon="5.9593">
        <ele>373.8</ele>
        <time>2016-04-08T11:34:50Z</time>
      </trkpt>
      <trkpt lat="43.51055" lon="5.95917">
        <ele>373.8</ele>
        <time>2016-04-08T11:34:59Z</time>
      </trkpt>
      <trkpt lat="43.5105" lon="5.95906">
        <ele>373.1</ele>
        <time>2016-04-08T11:35:08Z</time>
      </trkpt>
      <trkpt lat="43.51047" lon="5.95894">
        <ele>373.6</ele>
        <time>2016-04-08T11:35:16Z</time>
      </trkpt>
      <trkpt lat="43.51039" lon="5.95885">
        <ele>373.6</ele>
        <time>2016-04-08T11:35:23Z</time>
      </trkpt>
      <trkpt lat="43.5103" lon="5.95879">
        <ele>373.3</ele>
        <time>2016-04-08T11:35:31Z</time>
      </trkpt>
      <trkpt lat="43.51021" lon="5.95875">
        <ele>373.2</ele>
        <time>2016-04-08T11:35:39Z</time>
      </trkpt>
      <trkpt lat="43.51014" lon="5.95867">
        <ele>372.9</ele>
        <time>2016-04-08T11:35:47Z</time>
      </trkpt>
      <trkpt lat="43.51006" lon="5.95859">
        <ele>373</ele>
        <time>2016-04-08T11:35:55Z</time>
      </trkpt>
      <trkpt lat="43.50996" lon="5.95859">
        <ele>372.9</ele>
        <time>2016-04-08T11:36:04Z</time>
      </trkpt>
      <trkpt lat="43.50986" lon="5.95861">
        <ele>373.1</ele>
        <time>2016-04-08T11:36:12Z</time>
      </trkpt>
      <trkpt lat="43.50978" lon="5.95868">
        <ele>373.9</ele>
        <time>2016-04-08T11:36:43Z</time>
      </trkpt>
      <trkpt lat="43.50969" lon="5.95865">
        <ele>373.7</ele>
        <time>2016-04-08T11:36:53Z</time>
      </trkpt>
      <trkpt lat="43.50961" lon="5.95856">
        <ele>373.6</ele>
        <time>2016-04-08T11:37:10Z</time>
      </trkpt>
      <trkpt lat="43.50957" lon="5.95845">
        <ele>373.6</ele>
        <time>2016-04-08T11:37:17Z</time>
      </trkpt>
      <trkpt lat="43.50956" lon="5.95832">
        <ele>373.3</ele>
        <time>2016-04-08T11:37:28Z</time>
      </trkpt>
      <trkpt lat="43.50956" lon="5.95818">
        <ele>373.2</ele>
        <time>2016-04-08T11:37:38Z</time>
      </trkpt>
      <trkpt lat="43.50957" lon="5.95806">
        <ele>373.2</ele>
        <time>2016-04-08T11:37:47Z</time>
      </trkpt>
      <trkpt lat="43.50954" lon="5.95792">
        <ele>373.9</ele>
        <time>2016-04-08T11:37:56Z</time>
      </trkpt>
      <trkpt lat="43.50956" lon="5.9578">
        <ele>374.3</ele>
        <time>2016-04-08T11:38:03Z</time>
      </trkpt>
      <trkpt lat="43.50953" lon="5.95766">
        <ele>375.1</ele>
        <time>2016-04-08T11:38:12Z</time>
      </trkpt>
      <trkpt lat="43.50946" lon="5.95758">
        <ele>376.5</ele>
        <time>2016-04-08T11:38:20Z</time>
      </trkpt>
      <trkpt lat="43.50935" lon="5.95756">
        <ele>376.6</ele>
        <time>2016-04-08T11:38:27Z</time>
      </trkpt>
      <trkpt lat="43.50926" lon="5.95753">
        <ele>376.3</ele>
        <time>2016-04-08T11:38:35Z</time>
      </trkpt>
      <trkpt lat="43.50916" lon="5.95752">
        <ele>375.4</ele>
        <time>2016-04-08T11:38:44Z</time>
      </trkpt>
      <trkpt lat="43.50906" lon="5.95751">
        <ele>375.3</ele>
        <time>2016-04-08T11:38:55Z</time>
      </trkpt>
      <trkpt lat="43.50897" lon="5.95749">
        <ele>374.7</ele>
        <time>2016-04-08T11:39:03Z</time>
      </trkpt>
      <trkpt lat="43.50888" lon="5.95752">
        <ele>374.3</ele>
        <time>2016-04-08T11:39:12Z</time>
      </trkpt>
      <trkpt lat="43.50879" lon="5.95756">
        <ele>374.2</ele>
        <time>2016-04-08T11:39:19Z</time>
      </trkpt>
      <trkpt lat="43.50869" lon="5.95757">
        <ele>373.9</ele>
        <time>2016-04-08T11:39:24Z</time>
      </trkpt>
      <trkpt lat="43.5086" lon="5.95757">
        <ele>374</ele>
        <time>2016-04-08T11:39:32Z</time>
      </trkpt>
      <trkpt lat="43.50851" lon="5.95763">
        <ele>373.6</ele>
        <time>2016-04-08T11:39:54Z</time>
      </trkpt>
      <trkpt lat="43.50842" lon="5.95767">
        <ele>373.4</ele>
        <time>2016-04-08T11:40:02Z</time>
      </trkpt>
      <trkpt lat="43.50833" lon="5.95768">
        <ele>373.1</ele>
        <time>2016-04-08T11:40:10Z</time>
      </trkpt>
      <trkpt lat="43.50823" lon="5.9577">
        <ele>373.3</ele>
        <time>2016-04-08T11:40:18Z</time>
      </trkpt>
      <trkpt lat="43.50814" lon="5.95773">
        <ele>373.5</ele>
        <time>2016-04-08T11:40:26Z</time>
      </trkpt>
      <trkpt lat="43.50805" lon="5.95771">
        <ele>372.8</ele>
        <time>2016-04-08T11:40:37Z</time>
      </trkpt>
      <trkpt lat="43.50794" lon="5.95775">
        <ele>373.1</ele>
        <time>2016-04-08T11:40:46Z</time>
      </trkpt>
      <trkpt lat="43.50784" lon="5.95775">
        <ele>373.5</ele>
        <time>2016-04-08T11:40:52Z</time>
      </trkpt>
      <trkpt lat="43.50776" lon="5.95783">
        <ele>373.9</ele>
        <time>2016-04-08T11:41:04Z</time>
      </trkpt>
      <trkpt lat="43.5077" lon="5.95793">
        <ele>374</ele>
        <time>2016-04-08T11:41:14Z</time>
      </trkpt>
      <trkpt lat="43.5076" lon="5.95793">
        <ele>374.7</ele>
        <time>2016-04-08T11:41:21Z</time>
      </trkpt>
      <trkpt lat="43.5075" lon="5.95796">
        <ele>374.3</ele>
        <time>2016-04-08T11:41:31Z</time>
      </trkpt>
      <trkpt lat="43.5074" lon="5.958">
        <ele>374.3</ele>
        <time>2016-04-08T11:41:37Z</time>
      </trkpt>
      <trkpt lat="43.50731" lon="5.95803">
        <ele>374.5</ele>
        <time>2016-04-08T11:41:43Z</time>
      </trkpt>
      <trkpt lat="43.50722" lon="5.95803">
        <ele>374.6</ele>
        <time>2016-04-08T11:41:50Z</time>
      </trkpt>
      <trkpt lat="43.50712" lon="5.95804">
        <ele>374.2</ele>
        <time>2016-04-08T11:41:58Z</time>
      </trkpt>
      <trkpt lat="43.50702" lon="5.95803">
        <ele>373.8</ele>
        <time>2016-04-08T11:42:13Z</time>
      </trkpt>
      <trkpt lat="43.50692" lon="5.95806">
        <ele>373.4</ele>
        <time>2016-04-08T11:42:22Z</time>
      </trkpt>
      <trkpt lat="43.50682" lon="5.95807">
        <ele>373.4</ele>
        <time>2016-04-08T11:42:31Z</time>
      </trkpt>
      <trkpt lat="43.50672" lon="5.95807">
        <ele>373.6</ele>
        <time>2016-04-08T11:42:39Z</time>
      </trkpt>
      <trkpt lat="43.50662" lon="5.95809">
        <ele>373.6</ele>
        <time>2016-04-08T11:42:48Z</time>
      </trkpt>
      <trkpt lat="43.50653" lon="5.95807">
        <ele>373.4</ele>
        <time>2016-04-08T11:42:56Z</time>
      </trkpt>
      <trkpt lat="43.50644" lon="5.95808">
        <ele>373.7</ele>
        <time>2016-04-08T11:43:03Z</time>
      </trkpt>
      <trkpt lat="43.50634" lon="5.95808">
        <ele>373.3</ele>
        <time>2016-04-08T11:43:13Z</time>
      </trkpt>
      <trkpt lat="43.50625" lon="5.95806">
        <ele>373.8</ele>
        <time>2016-04-08T11:43:24Z</time>
      </trkpt>
      <trkpt lat="43.50616" lon="5.95806">
        <ele>373.9</ele>
        <time>2016-04-08T11:43:31Z</time>
      </trkpt>
      <trkpt lat="43.50607" lon="5.95808">
        <ele>373.5</ele>
        <time>2016-04-08T11:43:39Z</time>
      </trkpt>
      <trkpt lat="43.50596" lon="5.95807">
        <ele>373.5</ele>
        <time>2016-04-08T11:43:56Z</time>
      </trkpt>
      <trkpt lat="43.50587" lon="5.95807">
        <ele>373.2</ele>
        <time>2016-04-08T11:44:05Z</time>
      </trkpt>
      <trkpt lat="43.50577" lon="5.95806">
        <ele>373.2</ele>
        <time>2016-04-08T11:44:34Z</time>
      </trkpt>
      <trkpt lat="43.50568" lon="5.95807">
        <ele>372.6</ele>
        <time>2016-04-08T11:44:44Z</time>
      </trkpt>
      <trkpt lat="43.50558" lon="5.95807">
        <ele>372.2</ele>
        <time>2016-04-08T11:44:52Z</time>
      </trkpt>
      <trkpt lat="43.50549" lon="5.95808">
        <ele>373.2</ele>
        <time>2016-04-08T11:45:02Z</time>
      </trkpt>
      <trkpt lat="43.50539" lon="5.95809">
        <ele>372.4</ele>
        <time>2016-04-08T11:45:09Z</time>
      </trkpt>
      <trkpt lat="43.5053" lon="5.95808">
        <ele>370.5</ele>
        <time>2016-04-08T11:45:20Z</time>
      </trkpt>
      <trkpt lat="43.50521" lon="5.95804">
        <ele>373.5</ele>
        <time>2016-04-08T11:45:48Z</time>
      </trkpt>
      <trkpt lat="43.50512" lon="5.95804">
        <ele>373.7</ele>
        <time>2016-04-08T11:45:58Z</time>
      </trkpt>
      <trkpt lat="43.505" lon="5.95807">
        <ele>375</ele>
        <time>2016-04-08T11:46:07Z</time>
      </trkpt>
      <trkpt lat="43.5049" lon="5.95809">
        <ele>373.9</ele>
        <time>2016-04-08T11:46:17Z</time>
      </trkpt>
      <trkpt lat="43.50481" lon="5.9581">
        <ele>374.1</ele>
        <time>2016-04-08T11:46:24Z</time>
      </trkpt>
      <trkpt lat="43.50472" lon="5.95814">
        <ele>374.6</ele>
        <time>2016-04-08T11:46:35Z</time>
      </trkpt>
      <trkpt lat="43.50463" lon="5.95817">
        <ele>375.1</ele>
        <time>2016-04-08T11:46:44Z</time>
      </trkpt>
      <trkpt lat="43.50454" lon="5.95819">
        <ele>374.3</ele>
        <time>2016-04-08T11:46:51Z</time>
      </trkpt>
      <trkpt lat="43.50445" lon="5.95821">
        <ele>374</ele>
        <time>2016-04-08T11:47:00Z</time>
      </trkpt>
      <trkpt lat="43.50436" lon="5.9582">
        <ele>374.3</ele>
        <time>2016-04-08T11:47:11Z</time>
      </trkpt>
      <trkpt lat="43.50426" lon="5.95826">
        <ele>374.9</ele>
        <time>2016-04-08T11:47:18Z</time>
      </trkpt>
      <trkpt lat="43.50416" lon="5.95827">
        <ele>374.2</ele>
        <time>2016-04-08T11:47:27Z</time>
      </trkpt>
      <trkpt lat="43.50406" lon="5.9583">
        <ele>374</ele>
        <time>2016-04-08T11:47:36Z</time>
      </trkpt>
      <trkpt lat="43.50397" lon="5.9583">
        <ele>375.7</ele>
        <time>2016-04-08T11:47:44Z</time>
      </trkpt>
      <trkpt lat="43.50387" lon="5.95831">
        <ele>375.6</ele>
        <time>2016-04-08T11:47:51Z</time>
      </trkpt>
      <trkpt lat="43.50378" lon="5.95833">
        <ele>374.5</ele>
        <time>2016-04-08T11:48:00Z</time>
      </trkpt>
      <trkpt lat="43.50369" lon="5.95834">
        <ele>375.3</ele>
        <time>2016-04-08T11:48:09Z</time>
      </trkpt>
      <trkpt lat="43.5036" lon="5.95837">
        <ele>374.3</ele>
        <time>2016-04-08T11:48:19Z</time>
      </trkpt>
      <trkpt lat="43.50351" lon="5.95841">
        <ele>374.4</ele>
        <time>2016-04-08T11:48:36Z</time>
      </trkpt>
      <trkpt lat="43.50341" lon="5.95842">
        <ele>374.9</ele>
        <time>2016-04-08T11:48:42Z</time>
      </trkpt>
      <trkpt lat="43.50332" lon="5.95845">
        <ele>374.7</ele>
        <time>2016-04-08T11:48:48Z</time>
      </trkpt>
      <trkpt lat="43.50323" lon="5.95847">
        <ele>374.9</ele>
        <time>2016-04-08T11:48:56Z</time>
      </trkpt>
      <trkpt lat="43.50314" lon="5.95846">
        <ele>375.1</ele>
        <time>2016-04-08T11:49:02Z</time>
      </trkpt>
      <trkpt lat="43.50304" lon="5.95846">
        <ele>374.5</ele>
        <time>2016-04-08T11:49:11Z</time>
      </trkpt>
      <trkpt lat="43.50294" lon="5.95846">
        <ele>374.1</ele>
        <time>2016-04-08T11:49:19Z</time>
      </trkpt>
      <trkpt lat="43.50284" lon="5.95845">
        <ele>374.3</ele>
        <time>2016-04-08T11:49:28Z</time>
      </trkpt>
      <trkpt lat="43.50274" lon="5.95843">
        <ele>375.6</ele>
        <time>2016-04-08T11:49:37Z</time>
      </trkpt>
      <trkpt lat="43.50264" lon="5.95841">
        <ele>374.3</ele>
        <time>2016-04-08T11:49:48Z</time>
      </trkpt>
      <trkpt lat="43.50254" lon="5.9584">
        <ele>375.1</ele>
        <time>2016-04-08T11:49:59Z</time>
      </trkpt>
      <trkpt lat="43.50245" lon="5.95833">
        <ele>375.3</ele>
        <time>2016-04-08T11:50:07Z</time>
      </trkpt>
      <trkpt lat="43.50237" lon="5.95825">
        <ele>374.3</ele>
        <time>2016-04-08T11:50:17Z</time>
      </trkpt>
      <trkpt lat="43.50228" lon="5.9582">
        <ele>374.7</ele>
        <time>2016-04-08T11:50:23Z</time>
      </trkpt>
      <trkpt lat="43.50222" lon="5.95811">
        <ele>374.3</ele>
        <time>2016-04-08T11:50:31Z</time>
      </trkpt>
      <trkpt lat="43.50216" lon="5.958">
        <ele>374.2</ele>
        <time>2016-04-08T11:50:39Z</time>
      </trkpt>
      <trkpt lat="43.50214" lon="5.95787">
        <ele>373.3</ele>
        <time>2016-04-08T11:50:46Z</time>
      </trkpt>
      <trkpt lat="43.50212" lon="5.95773">
        <ele>374</ele>
        <time>2016-04-08T11:50:55Z</time>
      </trkpt>
      <trkpt lat="43.50211" lon="5.95761">
        <ele>374.8</ele>
        <time>2016-04-08T11:51:03Z</time>
      </trkpt>
      <trkpt lat="43.50209" lon="5.95748">
        <ele>373.9</ele>
        <time>2016-04-08T11:51:23Z</time>
      </trkpt>
      <trkpt lat="43.50206" lon="5.95737">
        <ele>373.7</ele>
        <time>2016-04-08T11:51:33Z</time>
      </trkpt>
      <trkpt lat="43.50204" lon="5.95723">
        <ele>374</ele>
        <time>2016-04-08T11:51:42Z</time>
      </trkpt>
      <trkpt lat="43.502" lon="5.95711">
        <ele>374.1</ele>
        <time>2016-04-08T11:51:51Z</time>
      </trkpt>
      <trkpt lat="43.50198" lon="5.95698">
        <ele>374.3</ele>
        <time>2016-04-08T11:52:10Z</time>
      </trkpt>
      <trkpt lat="43.50195" lon="5.95686">
        <ele>374.4</ele>
        <time>2016-04-08T11:52:21Z</time>
      </trkpt>
      <trkpt lat="43.50192" lon="5.95674">
        <ele>374.4</ele>
        <time>2016-04-08T11:52:32Z</time>
      </trkpt>
      <trkpt lat="43.5019" lon="5.95661">
        <ele>374.4</ele>
        <time>2016-04-08T11:52:42Z</time>
      </trkpt>
      <trkpt lat="43.50188" lon="5.95649">
        <ele>374.7</ele>
        <time>2016-04-08T11:52:51Z</time>
      </trkpt>
      <trkpt lat="43.50185" lon="5.95637">
        <ele>374.7</ele>
        <time>2016-04-08T11:53:00Z</time>
      </trkpt>
      <trkpt lat="43.50182" lon="5.95625">
        <ele>374.5</ele>
        <time>2016-04-08T11:53:09Z</time>
      </trkpt>
      <trkpt lat="43.5018" lon="5.95613">
        <ele>374.3</ele>
        <time>2016-04-08T11:53:18Z</time>
      </trkpt>
      <trkpt lat="43.50178" lon="5.95601">
        <ele>375.1</ele>
        <time>2016-04-08T11:53:27Z</time>
      </trkpt>
      <trkpt lat="43.50175" lon="5.95588">
        <ele>375.5</ele>
        <time>2016-04-08T11:53:36Z</time>
      </trkpt>
      <trkpt lat="43.50172" lon="5.95575">
        <ele>375.4</ele>
        <time>2016-04-08T11:53:46Z</time>
      </trkpt>
      <trkpt lat="43.50169" lon="5.95563">
        <ele>375.1</ele>
        <time>2016-04-08T11:53:56Z</time>
      </trkpt>
      <trkpt lat="43.50165" lon="5.95551">
        <ele>375.4</ele>
        <time>2016-04-08T11:54:06Z</time>
      </trkpt>
      <trkpt lat="43.50162" lon="5.95537">
        <ele>376.7</ele>
        <time>2016-04-08T11:54:16Z</time>
      </trkpt>
      <trkpt lat="43.5016" lon="5.95524">
        <ele>376.8</ele>
        <time>2016-04-08T11:54:26Z</time>
      </trkpt>
      <trkpt lat="43.50156" lon="5.95511">
        <ele>376</ele>
        <time>2016-04-08T11:54:36Z</time>
      </trkpt>
      <trkpt lat="43.50152" lon="5.95499">
        <ele>374.3</ele>
        <time>2016-04-08T11:54:44Z</time>
      </trkpt>
      <trkpt lat="43.50147" lon="5.95487">
        <ele>373.6</ele>
        <time>2016-04-08T11:55:04Z</time>
      </trkpt>
      <trkpt lat="43.50144" lon="5.95474">
        <ele>372.8</ele>
        <time>2016-04-08T11:55:17Z</time>
      </trkpt>
      <trkpt lat="43.50142" lon="5.95461">
        <ele>372.7</ele>
        <time>2016-04-08T11:55:25Z</time>
      </trkpt>
      <trkpt lat="43.50138" lon="5.95449">
        <ele>371.2</ele>
        <time>2016-04-08T11:55:33Z</time>
      </trkpt>
      <trkpt lat="43.50136" lon="5.95437">
        <ele>370.7</ele>
        <time>2016-04-08T11:55:45Z</time>
      </trkpt>
      <trkpt lat="43.50133" lon="5.95423">
        <ele>370.1</ele>
        <time>2016-04-08T11:55:54Z</time>
      </trkpt>
      <trkpt lat="43.5013" lon="5.95412">
        <ele>369.8</ele>
        <time>2016-04-08T11:56:02Z</time>
      </trkpt>
      <trkpt lat="43.50128" lon="5.95399">
        <ele>369.7</ele>
        <time>2016-04-08T11:56:10Z</time>
      </trkpt>
      <trkpt lat="43.50125" lon="5.95386">
        <ele>367.8</ele>
        <time>2016-04-08T11:56:18Z</time>
      </trkpt>
      <trkpt lat="43.50122" lon="5.95374">
        <ele>368.1</ele>
        <time>2016-04-08T11:56:26Z</time>
      </trkpt>
      <trkpt lat="43.50118" lon="5.95362">
        <ele>366.7</ele>
        <time>2016-04-08T11:56:34Z</time>
      </trkpt>
      <trkpt lat="43.50115" lon="5.9535">
        <ele>366.1</ele>
        <time>2016-04-08T11:56:42Z</time>
      </trkpt>
      <trkpt lat="43.50112" lon="5.95337">
        <ele>366</ele>
        <time>2016-04-08T11:56:50Z</time>
      </trkpt>
      <trkpt lat="43.50109" lon="5.95325">
        <ele>364.2</ele>
        <time>2016-04-08T11:56:58Z</time>
      </trkpt>
      <trkpt lat="43.50106" lon="5.95313">
        <ele>364</ele>
        <time>2016-04-08T11:57:06Z</time>
      </trkpt>
      <trkpt lat="43.50104" lon="5.95301">
        <ele>364.6</ele>
        <time>2016-04-08T11:57:14Z</time>
      </trkpt>
      <trkpt lat="43.501" lon="5.95288">
        <ele>363.2</ele>
        <time>2016-04-08T11:57:22Z</time>
      </trkpt>
      <trkpt lat="43.50097" lon="5.95276">
        <ele>363.5</ele>
        <time>2016-04-08T11:57:30Z</time>
      </trkpt>
      <trkpt lat="43.50095" lon="5.95264">
        <ele>364.1</ele>
        <time>2016-04-08T11:57:38Z</time>
      </trkpt>
      <trkpt lat="43.50091" lon="5.95251">
        <ele>362.8</ele>
        <time>2016-04-08T11:57:47Z</time>
      </trkpt>
      <trkpt lat="43.50087" lon="5.9524">
        <ele>363</ele>
        <time>2016-04-08T11:57:57Z</time>
      </trkpt>
      <trkpt lat="43.50086" lon="5.95228">
        <ele>361.2</ele>
        <time>2016-04-08T11:58:19Z</time>
      </trkpt>
      <trkpt lat="43.50077" lon="5.95224">
        <ele>359.2</ele>
        <time>2016-04-08T11:58:35Z</time>
      </trkpt>
      <trkpt lat="43.50068" lon="5.95219">
        <ele>358.5</ele>
        <time>2016-04-08T11:58:47Z</time>
      </trkpt>
      <trkpt lat="43.50059" lon="5.95215">
        <ele>358</ele>
        <time>2016-04-08T11:58:55Z</time>
      </trkpt>
      <trkpt lat="43.5005" lon="5.95209">
        <ele>357.1</ele>
        <time>2016-04-08T11:59:05Z</time>
      </trkpt>
      <trkpt lat="43.50042" lon="5.95202">
        <ele>356.7</ele>
        <time>2016-04-08T11:59:16Z</time>
      </trkpt>
      <trkpt lat="43.50035" lon="5.95194">
        <ele>356.2</ele>
        <time>2016-04-08T11:59:23Z</time>
      </trkpt>
      <trkpt lat="43.50029" lon="5.95185">
        <ele>355.3</ele>
        <time>2016-04-08T11:59:30Z</time>
      </trkpt>
      <trkpt lat="43.50022" lon="5.95176">
        <ele>355</ele>
        <time>2016-04-08T11:59:38Z</time>
      </trkpt>
      <trkpt lat="43.50013" lon="5.95169">
        <ele>354.3</ele>
        <time>2016-04-08T11:59:47Z</time>
      </trkpt>
      <trkpt lat="43.50005" lon="5.95163">
        <ele>353.1</ele>
        <time>2016-04-08T11:59:56Z</time>
      </trkpt>
      <trkpt lat="43.49996" lon="5.95158">
        <ele>352.6</ele>
        <time>2016-04-08T12:00:08Z</time>
      </trkpt>
      <trkpt lat="43.49987" lon="5.95158">
        <ele>352.2</ele>
        <time>2016-04-08T12:00:18Z</time>
      </trkpt>
      <trkpt lat="43.49977" lon="5.95157">
        <ele>351.8</ele>
        <time>2016-04-08T12:00:26Z</time>
      </trkpt>
      <trkpt lat="43.49969" lon="5.95153">
        <ele>351.9</ele>
        <time>2016-04-08T12:00:33Z</time>
      </trkpt>
      <trkpt lat="43.49961" lon="5.95145">
        <ele>350.2</ele>
        <time>2016-04-08T12:00:40Z</time>
      </trkpt>
      <trkpt lat="43.49953" lon="5.95138">
        <ele>350.6</ele>
        <time>2016-04-08T12:00:49Z</time>
      </trkpt>
      <trkpt lat="43.49944" lon="5.95136">
        <ele>350.3</ele>
        <time>2016-04-08T12:00:57Z</time>
      </trkpt>
      <trkpt lat="43.49936" lon="5.95129">
        <ele>349.9</ele>
        <time>2016-04-08T12:01:06Z</time>
      </trkpt>
      <trkpt lat="43.49927" lon="5.95125">
        <ele>348.9</ele>
        <time>2016-04-08T12:01:15Z</time>
      </trkpt>
      <trkpt lat="43.49919" lon="5.95119">
        <ele>348.7</ele>
        <time>2016-04-08T12:01:24Z</time>
      </trkpt>
      <trkpt lat="43.49913" lon="5.95107">
        <ele>347.9</ele>
        <time>2016-04-08T12:01:33Z</time>
      </trkpt>
      <trkpt lat="43.49906" lon="5.95099">
        <ele>347.3</ele>
        <time>2016-04-08T12:01:43Z</time>
      </trkpt>
      <trkpt lat="43.49898" lon="5.95091">
        <ele>346</ele>
        <time>2016-04-08T12:01:57Z</time>
      </trkpt>
      <trkpt lat="43.4989" lon="5.95085">
        <ele>345.6</ele>
        <time>2016-04-08T12:02:05Z</time>
      </trkpt>
      <trkpt lat="43.49882" lon="5.95077">
        <ele>344.8</ele>
        <time>2016-04-08T12:02:14Z</time>
      </trkpt>
      <trkpt lat="43.49874" lon="5.95069">
        <ele>343.9</ele>
        <time>2016-04-08T12:02:22Z</time>
      </trkpt>
      <trkpt lat="43.49866" lon="5.95064">
        <ele>343.1</ele>
        <time>2016-04-08T12:02:31Z</time>
      </trkpt>
      <trkpt lat="43.49856" lon="5.9506">
        <ele>342.4</ele>
        <time>2016-04-08T12:02:39Z</time>
      </trkpt>
      <trkpt lat="43.49849" lon="5.95051">
        <ele>341.9</ele>
        <time>2016-04-08T12:02:47Z</time>
      </trkpt>
      <trkpt lat="43.49844" lon="5.9504">
        <ele>340.4</ele>
        <time>2016-04-08T12:02:56Z</time>
      </trkpt>
      <trkpt lat="43.49836" lon="5.95033">
        <ele>339.8</ele>
        <time>2016-04-08T12:03:04Z</time>
      </trkpt>
      <trkpt lat="43.49827" lon="5.95026">
        <ele>339.5</ele>
        <time>2016-04-08T12:03:12Z</time>
      </trkpt>
      <trkpt lat="43.49818" lon="5.95021">
        <ele>339</ele>
        <time>2016-04-08T12:03:20Z</time>
      </trkpt>
      <trkpt lat="43.4981" lon="5.95015">
        <ele>338.8</ele>
        <time>2016-04-08T12:03:29Z</time>
      </trkpt>
      <trkpt lat="43.49802" lon="5.95007">
        <ele>337.7</ele>
        <time>2016-04-08T12:03:38Z</time>
      </trkpt>
      <trkpt lat="43.49793" lon="5.95002">
        <ele>337.1</ele>
        <time>2016-04-08T12:03:47Z</time>
      </trkpt>
      <trkpt lat="43.49784" lon="5.95002">
        <ele>336.3</ele>
        <time>2016-04-08T12:03:57Z</time>
      </trkpt>
      <trkpt lat="43.49775" lon="5.95008">
        <ele>336</ele>
        <time>2016-04-08T12:04:08Z</time>
      </trkpt>
      <trkpt lat="43.49768" lon="5.95017">
        <ele>336.8</ele>
        <time>2016-04-08T12:04:18Z</time>
      </trkpt>
      <trkpt lat="43.49764" lon="5.9503">
        <ele>335.5</ele>
        <time>2016-04-08T12:04:28Z</time>
      </trkpt>
      <trkpt lat="43.49759" lon="5.95042">
        <ele>334.1</ele>
        <time>2016-04-08T12:04:38Z</time>
      </trkpt>
      <trkpt lat="43.49754" lon="5.95052">
        <ele>333.2</ele>
        <time>2016-04-08T12:04:47Z</time>
      </trkpt>
      <trkpt lat="43.49744" lon="5.9505">
        <ele>331.6</ele>
        <time>2016-04-08T12:05:03Z</time>
      </trkpt>
      <trkpt lat="43.49735" lon="5.95047">
        <ele>331.2</ele>
        <time>2016-04-08T12:05:11Z</time>
      </trkpt>
      <trkpt lat="43.49726" lon="5.95044">
        <ele>330.3</ele>
        <time>2016-04-08T12:05:23Z</time>
      </trkpt>
      <trkpt lat="43.49717" lon="5.95043">
        <ele>322.3</ele>
        <time>2016-04-08T12:07:15Z</time>
      </trkpt>
      <trkpt lat="43.49709" lon="5.95051">
        <ele>321.8</ele>
        <time>2016-04-08T12:07:25Z</time>
      </trkpt>
      <trkpt lat="43.49705" lon="5.95062">
        <ele>319.7</ele>
        <time>2016-04-08T12:07:50Z</time>
      </trkpt>
      <trkpt lat="43.49712" lon="5.95054">
        <ele>289.8</ele>
        <time>2016-04-08T12:14:47Z</time>
      </trkpt>
      <trkpt lat="43.49718" lon="5.95045">
        <ele>288</ele>
        <time>2016-04-08T12:15:01Z</time>
      </trkpt>
      <trkpt lat="43.49727" lon="5.95043">
        <ele>287.6</ele>
        <time>2016-04-08T12:15:12Z</time>
      </trkpt>
      <trkpt lat="43.49736" lon="5.95042">
        <ele>287</ele>
        <time>2016-04-08T12:15:24Z</time>
      </trkpt>
      <trkpt lat="43.49743" lon="5.95051">
        <ele>286</ele>
        <time>2016-04-08T12:15:31Z</time>
      </trkpt>
      <trkpt lat="43.49737" lon="5.95062">
        <ele>284.2</ele>
        <time>2016-04-08T12:15:44Z</time>
      </trkpt>
      <trkpt lat="43.49733" lon="5.95073">
        <ele>283.3</ele>
        <time>2016-04-08T12:15:54Z</time>
      </trkpt>
      <trkpt lat="43.49726" lon="5.95082">
        <ele>282.6</ele>
        <time>2016-04-08T12:16:06Z</time>
      </trkpt>
      <trkpt lat="43.49719" lon="5.95091">
        <ele>281.9</ele>
        <time>2016-04-08T12:16:14Z</time>
      </trkpt>
      <trkpt lat="43.49712" lon="5.951">
        <ele>280.6</ele>
        <time>2016-04-08T12:16:23Z</time>
      </trkpt>
      <trkpt lat="43.49705" lon="5.9511">
        <ele>280.5</ele>
        <time>2016-04-08T12:16:31Z</time>
      </trkpt>
      <trkpt lat="43.49698" lon="5.95118">
        <ele>281.1</ele>
        <time>2016-04-08T12:16:37Z</time>
      </trkpt>
      <trkpt lat="43.4969" lon="5.95125">
        <ele>279.6</ele>
        <time>2016-04-08T12:16:53Z</time>
      </trkpt>
      <trkpt lat="43.49681" lon="5.95124">
        <ele>274.9</ele>
        <time>2016-04-08T12:17:58Z</time>
      </trkpt>
      <trkpt lat="43.49674" lon="5.95131">
        <ele>272.2</ele>
        <time>2016-04-08T12:18:37Z</time>
      </trkpt>
      <trkpt lat="43.49669" lon="5.95142">
        <ele>271.2</ele>
        <time>2016-04-08T12:18:46Z</time>
      </trkpt>
      <trkpt lat="43.49664" lon="5.95153">
        <ele>270.9</ele>
        <time>2016-04-08T12:18:57Z</time>
      </trkpt>
      <trkpt lat="43.49657" lon="5.95163">
        <ele>271.2</ele>
        <time>2016-04-08T12:19:06Z</time>
      </trkpt>
      <trkpt lat="43.4965" lon="5.95172">
        <ele>270.7</ele>
        <time>2016-04-08T12:19:16Z</time>
      </trkpt>
      <trkpt lat="43.49643" lon="5.95181">
        <ele>269.4</ele>
        <time>2016-04-08T12:19:26Z</time>
      </trkpt>
      <trkpt lat="43.49634" lon="5.95186">
        <ele>269</ele>
        <time>2016-04-08T12:19:34Z</time>
      </trkpt>
      <trkpt lat="43.49626" lon="5.95193">
        <ele>267.8</ele>
        <time>2016-04-08T12:19:42Z</time>
      </trkpt>
      <trkpt lat="43.49618" lon="5.952">
        <ele>267.5</ele>
        <time>2016-04-08T12:19:48Z</time>
      </trkpt>
      <trkpt lat="43.4961" lon="5.95207">
        <ele>266.7</ele>
        <time>2016-04-08T12:19:56Z</time>
      </trkpt>
      <trkpt lat="43.49602" lon="5.95214">
        <ele>266.5</ele>
        <time>2016-04-08T12:20:03Z</time>
      </trkpt>
      <trkpt lat="43.49594" lon="5.95222">
        <ele>266.4</ele>
        <time>2016-04-08T12:20:12Z</time>
      </trkpt>
      <trkpt lat="43.49585" lon="5.95226">
        <ele>264.9</ele>
        <time>2016-04-08T12:20:20Z</time>
      </trkpt>
      <trkpt lat="43.49577" lon="5.95234">
        <ele>265.3</ele>
        <time>2016-04-08T12:20:28Z</time>
      </trkpt>
      <trkpt lat="43.49569" lon="5.95242">
        <ele>265.5</ele>
        <time>2016-04-08T12:20:35Z</time>
      </trkpt>
      <trkpt lat="43.49561" lon="5.95251">
        <ele>263.6</ele>
        <time>2016-04-08T12:20:42Z</time>
      </trkpt>
      <trkpt lat="43.49553" lon="5.95257">
        <ele>263.8</ele>
        <time>2016-04-08T12:20:50Z</time>
      </trkpt>
      <trkpt lat="43.49546" lon="5.95265">
        <ele>262.1</ele>
        <time>2016-04-08T12:20:58Z</time>
      </trkpt>
      <trkpt lat="43.49538" lon="5.95273">
        <ele>261.7</ele>
        <time>2016-04-08T12:21:05Z</time>
      </trkpt>
      <trkpt lat="43.49528" lon="5.95276">
        <ele>261.2</ele>
        <time>2016-04-08T12:21:14Z</time>
      </trkpt>
      <trkpt lat="43.49519" lon="5.95281">
        <ele>260.9</ele>
        <time>2016-04-08T12:21:23Z</time>
      </trkpt>
      <trkpt lat="43.49509" lon="5.95287">
        <ele>259.2</ele>
        <time>2016-04-08T12:21:33Z</time>
      </trkpt>
      <trkpt lat="43.495" lon="5.9529">
        <ele>258.9</ele>
        <time>2016-04-08T12:21:42Z</time>
      </trkpt>
      <trkpt lat="43.49492" lon="5.95297">
        <ele>258.1</ele>
        <time>2016-04-08T12:21:54Z</time>
      </trkpt>
      <trkpt lat="43.49483" lon="5.95298">
        <ele>256.9</ele>
        <time>2016-04-08T12:22:03Z</time>
      </trkpt>
      <trkpt lat="43.49475" lon="5.95304">
        <ele>256.5</ele>
        <time>2016-04-08T12:22:12Z</time>
      </trkpt>
      <trkpt lat="43.49465" lon="5.95308">
        <ele>255.5</ele>
        <time>2016-04-08T12:22:20Z</time>
      </trkpt>
      <trkpt lat="43.49456" lon="5.95313">
        <ele>254.9</ele>
        <time>2016-04-08T12:22:30Z</time>
      </trkpt>
      <trkpt lat="43.49446" lon="5.95311">
        <ele>254.2</ele>
        <time>2016-04-08T12:22:39Z</time>
      </trkpt>
      <trkpt lat="43.49437" lon="5.95312">
        <ele>253.8</ele>
        <time>2016-04-08T12:22:49Z</time>
      </trkpt>
      <trkpt lat="43.4943" lon="5.95304">
        <ele>254.2</ele>
        <time>2016-04-08T12:23:01Z</time>
      </trkpt>
      <trkpt lat="43.49423" lon="5.95295">
        <ele>253.3</ele>
        <time>2016-04-08T12:23:11Z</time>
      </trkpt>
      <trkpt lat="43.49415" lon="5.95288">
        <ele>253</ele>
        <time>2016-04-08T12:23:22Z</time>
      </trkpt>
      <trkpt lat="43.49406" lon="5.9528">
        <ele>251.7</ele>
        <time>2016-04-08T12:23:30Z</time>
      </trkpt>
      <trkpt lat="43.494" lon="5.95271">
        <ele>251.3</ele>
        <time>2016-04-08T12:23:37Z</time>
      </trkpt>
      <trkpt lat="43.49394" lon="5.95261">
        <ele>250.6</ele>
        <time>2016-04-08T12:23:46Z</time>
      </trkpt>
      <trkpt lat="43.49388" lon="5.9525">
        <ele>250.3</ele>
        <time>2016-04-08T12:23:56Z</time>
      </trkpt>
      <trkpt lat="43.49381" lon="5.9524">
        <ele>249.6</ele>
        <time>2016-04-08T12:24:04Z</time>
      </trkpt>
      <trkpt lat="43.49376" lon="5.9523">
        <ele>248.3</ele>
        <time>2016-04-08T12:24:12Z</time>
      </trkpt>
      <trkpt lat="43.49373" lon="5.95217">
        <ele>247.5</ele>
        <time>2016-04-08T12:24:22Z</time>
      </trkpt>
      <trkpt lat="43.4937" lon="5.95204">
        <ele>247.5</ele>
        <time>2016-04-08T12:24:31Z</time>
      </trkpt>
      <trkpt lat="43.49364" lon="5.95193">
        <ele>248.2</ele>
        <time>2016-04-08T12:24:39Z</time>
      </trkpt>
      <trkpt lat="43.49359" lon="5.95182">
        <ele>248.3</ele>
        <time>2016-04-08T12:24:47Z</time>
      </trkpt>
      <trkpt lat="43.49356" lon="5.95169">
        <ele>247.9</ele>
        <time>2016-04-08T12:24:57Z</time>
      </trkpt>
      <trkpt lat="43.49352" lon="5.95157">
        <ele>247.7</ele>
        <time>2016-04-08T12:25:08Z</time>
      </trkpt>
      <trkpt lat="43.49349" lon="5.95144">
        <ele>248.2</ele>
        <time>2016-04-08T12:25:18Z</time>
      </trkpt>
      <trkpt lat="43.49345" lon="5.95132">
        <ele>246.9</ele>
        <time>2016-04-08T12:25:27Z</time>
      </trkpt>
      <trkpt lat="43.49342" lon="5.9512">
        <ele>247.9</ele>
        <time>2016-04-08T12:25:36Z</time>
      </trkpt>
      <trkpt lat="43.49338" lon="5.95107">
        <ele>247.9</ele>
        <time>2016-04-08T12:25:45Z</time>
      </trkpt>
      <trkpt lat="43.49333" lon="5.95097">
        <ele>248.4</ele>
        <time>2016-04-08T12:25:55Z</time>
      </trkpt>
      <trkpt lat="43.49328" lon="5.95085">
        <ele>248.2</ele>
        <time>2016-04-08T12:26:04Z</time>
      </trkpt>
      <trkpt lat="43.49325" lon="5.95073">
        <ele>248.8</ele>
        <time>2016-04-08T12:26:14Z</time>
      </trkpt>
      <trkpt lat="43.49319" lon="5.95063">
        <ele>249.4</ele>
        <time>2016-04-08T12:26:24Z</time>
      </trkpt>
      <trkpt lat="43.49314" lon="5.95051">
        <ele>250.5</ele>
        <time>2016-04-08T12:26:34Z</time>
      </trkpt>
      <trkpt lat="43.4931" lon="5.9504">
        <ele>250.6</ele>
        <time>2016-04-08T12:26:43Z</time>
      </trkpt>
      <trkpt lat="43.49305" lon="5.9503">
        <ele>251.9</ele>
        <time>2016-04-08T12:26:53Z</time>
      </trkpt>
      <trkpt lat="43.493" lon="5.95018">
        <ele>251.1</ele>
        <time>2016-04-08T12:27:02Z</time>
      </trkpt>
      <trkpt lat="43.49291" lon="5.9501">
        <ele>250.5</ele>
        <time>2016-04-08T12:27:11Z</time>
      </trkpt>
      <trkpt lat="43.49286" lon="5.94999">
        <ele>249.9</ele>
        <time>2016-04-08T12:27:19Z</time>
      </trkpt>
      <trkpt lat="43.49279" lon="5.94989">
        <ele>249.3</ele>
        <time>2016-04-08T12:27:27Z</time>
      </trkpt>
      <trkpt lat="43.49273" lon="5.9498">
        <ele>249.7</ele>
        <time>2016-04-08T12:27:34Z</time>
      </trkpt>
      <trkpt lat="43.49269" lon="5.94969">
        <ele>249.4</ele>
        <time>2016-04-08T12:27:42Z</time>
      </trkpt>
      <trkpt lat="43.49262" lon="5.9496">
        <ele>250.1</ele>
        <time>2016-04-08T12:27:50Z</time>
      </trkpt>
      <trkpt lat="43.49258" lon="5.94947">
        <ele>249.7</ele>
        <time>2016-04-08T12:27:59Z</time>
      </trkpt>
      <trkpt lat="43.4925" lon="5.94941">
        <ele>249.6</ele>
        <time>2016-04-08T12:28:09Z</time>
      </trkpt>
      <trkpt lat="43.4924" lon="5.94944">
        <ele>249.4</ele>
        <time>2016-04-08T12:28:17Z</time>
      </trkpt>
      <trkpt lat="43.49231" lon="5.94944">
        <ele>249.6</ele>
        <time>2016-04-08T12:28:26Z</time>
      </trkpt>
      <trkpt lat="43.49221" lon="5.94947">
        <ele>249.6</ele>
        <time>2016-04-08T12:28:36Z</time>
      </trkpt>
      <trkpt lat="43.49211" lon="5.94948">
        <ele>250.5</ele>
        <time>2016-04-08T12:28:45Z</time>
      </trkpt>
      <trkpt lat="43.49202" lon="5.94949">
        <ele>249.8</ele>
        <time>2016-04-08T12:28:54Z</time>
      </trkpt>
      <trkpt lat="43.49194" lon="5.94957">
        <ele>249.9</ele>
        <time>2016-04-08T12:29:04Z</time>
      </trkpt>
      <trkpt lat="43.49185" lon="5.94961">
        <ele>250.5</ele>
        <time>2016-04-08T12:29:13Z</time>
      </trkpt>
      <trkpt lat="43.49176" lon="5.94966">
        <ele>250.4</ele>
        <time>2016-04-08T12:29:22Z</time>
      </trkpt>
      <trkpt lat="43.49167" lon="5.9497">
        <ele>250.1</ele>
        <time>2016-04-08T12:29:30Z</time>
      </trkpt>
      <trkpt lat="43.49158" lon="5.94971">
        <ele>250.5</ele>
        <time>2016-04-08T12:29:40Z</time>
      </trkpt>
      <trkpt lat="43.49149" lon="5.94974">
        <ele>250.3</ele>
        <time>2016-04-08T12:29:48Z</time>
      </trkpt>
      <trkpt lat="43.49139" lon="5.94973">
        <ele>249.7</ele>
        <time>2016-04-08T12:29:58Z</time>
      </trkpt>
      <trkpt lat="43.49129" lon="5.94972">
        <ele>249.2</ele>
        <time>2016-04-08T12:30:11Z</time>
      </trkpt>
      <trkpt lat="43.49122" lon="5.94964">
        <ele>248.9</ele>
        <time>2016-04-08T12:30:29Z</time>
      </trkpt>
      <trkpt lat="43.49113" lon="5.94965">
        <ele>250.5</ele>
        <time>2016-04-08T12:31:21Z</time>
      </trkpt>
      <trkpt lat="43.49103" lon="5.94968">
        <ele>250.6</ele>
        <time>2016-04-08T12:31:31Z</time>
      </trkpt>
      <trkpt lat="43.49093" lon="5.94967">
        <ele>249.7</ele>
        <time>2016-04-08T12:31:40Z</time>
      </trkpt>
      <trkpt lat="43.49084" lon="5.94966">
        <ele>249</ele>
        <time>2016-04-08T12:31:48Z</time>
      </trkpt>
      <trkpt lat="43.49074" lon="5.9497">
        <ele>248.8</ele>
        <time>2016-04-08T12:31:57Z</time>
      </trkpt>
      <trkpt lat="43.49065" lon="5.94973">
        <ele>249.7</ele>
        <time>2016-04-08T12:32:05Z</time>
      </trkpt>
      <trkpt lat="43.49057" lon="5.94979">
        <ele>249</ele>
        <time>2016-04-08T12:32:13Z</time>
      </trkpt>
      <trkpt lat="43.49049" lon="5.94986">
        <ele>249.3</ele>
        <time>2016-04-08T12:32:21Z</time>
      </trkpt>
      <trkpt lat="43.4904" lon="5.94991">
        <ele>249.6</ele>
        <time>2016-04-08T12:32:30Z</time>
      </trkpt>
      <trkpt lat="43.4903" lon="5.94996">
        <ele>248.8</ele>
        <time>2016-04-08T12:32:40Z</time>
      </trkpt>
      <trkpt lat="43.49022" lon="5.95001">
        <ele>248.9</ele>
        <time>2016-04-08T12:32:51Z</time>
      </trkpt>
      <trkpt lat="43.49013" lon="5.95003">
        <ele>249.2</ele>
        <time>2016-04-08T12:33:01Z</time>
      </trkpt>
      <trkpt lat="43.49003" lon="5.95003">
        <ele>249.9</ele>
        <time>2016-04-08T12:33:19Z</time>
      </trkpt>
      <trkpt lat="43.48993" lon="5.95006">
        <ele>250.2</ele>
        <time>2016-04-08T12:33:28Z</time>
      </trkpt>
      <trkpt lat="43.48983" lon="5.95009">
        <ele>250.1</ele>
        <time>2016-04-08T12:33:37Z</time>
      </trkpt>
      <trkpt lat="43.48973" lon="5.95009">
        <ele>250.5</ele>
        <time>2016-04-08T12:33:51Z</time>
      </trkpt>
      <trkpt lat="43.48965" lon="5.95013">
        <ele>251.1</ele>
        <time>2016-04-08T12:34:00Z</time>
      </trkpt>
      <trkpt lat="43.48955" lon="5.95016">
        <ele>250.5</ele>
        <time>2016-04-08T12:34:09Z</time>
      </trkpt>
      <trkpt lat="43.48945" lon="5.95018">
        <ele>250.4</ele>
        <time>2016-04-08T12:34:18Z</time>
      </trkpt>
      <trkpt lat="43.48936" lon="5.95021">
        <ele>250</ele>
        <time>2016-04-08T12:34:27Z</time>
      </trkpt>
      <trkpt lat="43.48926" lon="5.95021">
        <ele>250.1</ele>
        <time>2016-04-08T12:34:37Z</time>
      </trkpt>
      <trkpt lat="43.48917" lon="5.95022">
        <ele>250.6</ele>
        <time>2016-04-08T12:34:45Z</time>
      </trkpt>
      <trkpt lat="43.48908" lon="5.95025">
        <ele>249.7</ele>
        <time>2016-04-08T12:34:53Z</time>
      </trkpt>
      <trkpt lat="43.48898" lon="5.95025">
        <ele>249.4</ele>
        <time>2016-04-08T12:35:02Z</time>
      </trkpt>
      <trkpt lat="43.48888" lon="5.95028">
        <ele>248.9</ele>
        <time>2016-04-08T12:35:11Z</time>
      </trkpt>
      <trkpt lat="43.48879" lon="5.95029">
        <ele>249.5</ele>
        <time>2016-04-08T12:35:20Z</time>
      </trkpt>
      <trkpt lat="43.48869" lon="5.95032">
        <ele>248.9</ele>
        <time>2016-04-08T12:35:29Z</time>
      </trkpt>
      <trkpt lat="43.48861" lon="5.95037">
        <ele>249.5</ele>
        <time>2016-04-08T12:35:37Z</time>
      </trkpt>
      <trkpt lat="43.48852" lon="5.95045">
        <ele>249.5</ele>
        <time>2016-04-08T12:35:45Z</time>
      </trkpt>
      <trkpt lat="43.48844" lon="5.95051">
        <ele>249.6</ele>
        <time>2016-04-08T12:35:54Z</time>
      </trkpt>
      <trkpt lat="43.48835" lon="5.95054">
        <ele>249.7</ele>
        <time>2016-04-08T12:36:02Z</time>
      </trkpt>
      <trkpt lat="43.48824" lon="5.95053">
        <ele>249.6</ele>
        <time>2016-04-08T12:36:10Z</time>
      </trkpt>
      <trkpt lat="43.48815" lon="5.95055">
        <ele>250.1</ele>
        <time>2016-04-08T12:36:18Z</time>
      </trkpt>
      <trkpt lat="43.48806" lon="5.95055">
        <ele>249.5</ele>
        <time>2016-04-08T12:36:26Z</time>
      </trkpt>
      <trkpt lat="43.48797" lon="5.95052">
        <ele>249.1</ele>
        <time>2016-04-08T12:36:35Z</time>
      </trkpt>
      <trkpt lat="43.48787" lon="5.9505">
        <ele>250</ele>
        <time>2016-04-08T12:36:44Z</time>
      </trkpt>
      <trkpt lat="43.48777" lon="5.95053">
        <ele>249.4</ele>
        <time>2016-04-08T12:36:52Z</time>
      </trkpt>
      <trkpt lat="43.48768" lon="5.95055">
        <ele>251</ele>
        <time>2016-04-08T12:37:00Z</time>
      </trkpt>
      <trkpt lat="43.48758" lon="5.95056">
        <ele>250.3</ele>
        <time>2016-04-08T12:37:07Z</time>
      </trkpt>
      <trkpt lat="43.48749" lon="5.95056">
        <ele>249.8</ele>
        <time>2016-04-08T12:37:15Z</time>
      </trkpt>
      <trkpt lat="43.48739" lon="5.95057">
        <ele>249.8</ele>
        <time>2016-04-08T12:37:26Z</time>
      </trkpt>
      <trkpt lat="43.48729" lon="5.95058">
        <ele>249.6</ele>
        <time>2016-04-08T12:37:36Z</time>
      </trkpt>
      <trkpt lat="43.4872" lon="5.9506">
        <ele>250.4</ele>
        <time>2016-04-08T12:37:43Z</time>
      </trkpt>
      <trkpt lat="43.48711" lon="5.95063">
        <ele>249.8</ele>
        <time>2016-04-08T12:37:51Z</time>
      </trkpt>
      <trkpt lat="43.48702" lon="5.95068">
        <ele>249.8</ele>
        <time>2016-04-08T12:37:58Z</time>
      </trkpt>
      <trkpt lat="43.48693" lon="5.9507">
        <ele>249.6</ele>
        <time>2016-04-08T12:38:06Z</time>
      </trkpt>
      <trkpt lat="43.48683" lon="5.95069">
        <ele>250</ele>
        <time>2016-04-08T12:38:16Z</time>
      </trkpt>
      <trkpt lat="43.48673" lon="5.9507">
        <ele>249.9</ele>
        <time>2016-04-08T12:38:25Z</time>
      </trkpt>
      <trkpt lat="43.48664" lon="5.95073">
        <ele>249.7</ele>
        <time>2016-04-08T12:38:33Z</time>
      </trkpt>
      <trkpt lat="43.48654" lon="5.95077">
        <ele>249.8</ele>
        <time>2016-04-08T12:38:42Z</time>
      </trkpt>
      <trkpt lat="43.48645" lon="5.95077">
        <ele>249</ele>
        <time>2016-04-08T12:38:51Z</time>
      </trkpt>
      <trkpt lat="43.48636" lon="5.95075">
        <ele>248</ele>
        <time>2016-04-08T12:38:59Z</time>
      </trkpt>
      <trkpt lat="43.48626" lon="5.95073">
        <ele>249.5</ele>
        <time>2016-04-08T12:39:11Z</time>
      </trkpt>
      <trkpt lat="43.48617" lon="5.95074">
        <ele>250.7</ele>
        <time>2016-04-08T12:39:22Z</time>
      </trkpt>
      <trkpt lat="43.48607" lon="5.95075">
        <ele>250.5</ele>
        <time>2016-04-08T12:39:33Z</time>
      </trkpt>
      <trkpt lat="43.48597" lon="5.95074">
        <ele>250.5</ele>
        <time>2016-04-08T12:40:20Z</time>
      </trkpt>
      <trkpt lat="43.48587" lon="5.95075">
        <ele>250.9</ele>
        <time>2016-04-08T12:40:30Z</time>
      </trkpt>
      <trkpt lat="43.48577" lon="5.95075">
        <ele>251.1</ele>
        <time>2016-04-08T12:40:39Z</time>
      </trkpt>
      <trkpt lat="43.48568" lon="5.95079">
        <ele>251.3</ele>
        <time>2016-04-08T12:40:48Z</time>
      </trkpt>
      <trkpt lat="43.48559" lon="5.9508">
        <ele>252.2</ele>
        <time>2016-04-08T12:40:57Z</time>
      </trkpt>
      <trkpt lat="43.48549" lon="5.95079">
        <ele>251.6</ele>
        <time>2016-04-08T12:41:06Z</time>
      </trkpt>
      <trkpt lat="43.4854" lon="5.95079">
        <ele>251.5</ele>
        <time>2016-04-08T12:41:16Z</time>
      </trkpt>
      <trkpt lat="43.48531" lon="5.95079">
        <ele>251.3</ele>
        <time>2016-04-08T12:41:27Z</time>
      </trkpt>
      <trkpt lat="43.48521" lon="5.95079">
        <ele>251</ele>
        <time>2016-04-08T12:41:36Z</time>
      </trkpt>
      <trkpt lat="43.48512" lon="5.95078">
        <ele>251</ele>
        <time>2016-04-08T12:41:45Z</time>
      </trkpt>
      <trkpt lat="43.48503" lon="5.95075">
        <ele>251</ele>
        <time>2016-04-08T12:41:55Z</time>
      </trkpt>
      <trkpt lat="43.48494" lon="5.95074">
        <ele>250.2</ele>
        <time>2016-04-08T12:42:04Z</time>
      </trkpt>
      <trkpt lat="43.48485" lon="5.95076">
        <ele>249.7</ele>
        <time>2016-04-08T12:42:12Z</time>
      </trkpt>
      <trkpt lat="43.48475" lon="5.95076">
        <ele>250.2</ele>
        <time>2016-04-08T12:42:21Z</time>
      </trkpt>
      <trkpt lat="43.48465" lon="5.95074">
        <ele>250.3</ele>
        <time>2016-04-08T12:42:32Z</time>
      </trkpt>
      <trkpt lat="43.48456" lon="5.95076">
        <ele>250.7</ele>
        <time>2016-04-08T12:42:41Z</time>
      </trkpt>
      <trkpt lat="43.48447" lon="5.95072">
        <ele>250.9</ele>
        <time>2016-04-08T12:42:48Z</time>
      </trkpt>
      <trkpt lat="43.48438" lon="5.95071">
        <ele>251.1</ele>
        <time>2016-04-08T12:42:56Z</time>
      </trkpt>
      <trkpt lat="43.48428" lon="5.95068">
        <ele>250.6</ele>
        <time>2016-04-08T12:43:04Z</time>
      </trkpt>
      <trkpt lat="43.48418" lon="5.95066">
        <ele>250.1</ele>
        <time>2016-04-08T12:43:14Z</time>
      </trkpt>
      <trkpt lat="43.48409" lon="5.95065">
        <ele>250.5</ele>
        <time>2016-04-08T12:43:22Z</time>
      </trkpt>
      <trkpt lat="43.48399" lon="5.95061">
        <ele>250.1</ele>
        <time>2016-04-08T12:43:30Z</time>
      </trkpt>
      <trkpt lat="43.4839" lon="5.95059">
        <ele>250.3</ele>
        <time>2016-04-08T12:43:41Z</time>
      </trkpt>
      <trkpt lat="43.48381" lon="5.95061">
        <ele>250.2</ele>
        <time>2016-04-08T12:43:52Z</time>
      </trkpt>
      <trkpt lat="43.48372" lon="5.95067">
        <ele>250.6</ele>
        <time>2016-04-08T12:44:00Z</time>
      </trkpt>
      <trkpt lat="43.48362" lon="5.95071">
        <ele>250.7</ele>
        <time>2016-04-08T12:44:09Z</time>
      </trkpt>
      <trkpt lat="43.48354" lon="5.95078">
        <ele>250.9</ele>
        <time>2016-04-08T12:44:17Z</time>
      </trkpt>
      <trkpt lat="43.48345" lon="5.95084">
        <ele>251</ele>
        <time>2016-04-08T12:44:24Z</time>
      </trkpt>
      <trkpt lat="43.48336" lon="5.95087">
        <ele>251</ele>
        <time>2016-04-08T12:44:31Z</time>
      </trkpt>
      <trkpt lat="43.48327" lon="5.95089">
        <ele>250.6</ele>
        <time>2016-04-08T12:44:39Z</time>
      </trkpt>
      <trkpt lat="43.48317" lon="5.95086">
        <ele>250.7</ele>
        <time>2016-04-08T12:44:48Z</time>
      </trkpt>
      <trkpt lat="43.48309" lon="5.9508">
        <ele>251.2</ele>
        <time>2016-04-08T12:44:55Z</time>
      </trkpt>
      <trkpt lat="43.48303" lon="5.95069">
        <ele>250.7</ele>
        <time>2016-04-08T12:45:04Z</time>
      </trkpt>
      <trkpt lat="43.48294" lon="5.95064">
        <ele>251.1</ele>
        <time>2016-04-08T12:45:14Z</time>
      </trkpt>
      <trkpt lat="43.48284" lon="5.95063">
        <ele>251.6</ele>
        <time>2016-04-08T12:45:23Z</time>
      </trkpt>
      <trkpt lat="43.48275" lon="5.95066">
        <ele>251.6</ele>
        <time>2016-04-08T12:45:32Z</time>
      </trkpt>
      <trkpt lat="43.48266" lon="5.9507">
        <ele>251.2</ele>
        <time>2016-04-08T12:45:41Z</time>
      </trkpt>
      <trkpt lat="43.48257" lon="5.95074">
        <ele>251.5</ele>
        <time>2016-04-08T12:45:50Z</time>
      </trkpt>
      <trkpt lat="43.48247" lon="5.95078">
        <ele>251.4</ele>
        <time>2016-04-08T12:46:00Z</time>
      </trkpt>
      <trkpt lat="43.48237" lon="5.9508">
        <ele>251.9</ele>
        <time>2016-04-08T12:46:10Z</time>
      </trkpt>
      <trkpt lat="43.48228" lon="5.95084">
        <ele>252.5</ele>
        <time>2016-04-08T12:46:19Z</time>
      </trkpt>
      <trkpt lat="43.48219" lon="5.95088">
        <ele>251.6</ele>
        <time>2016-04-08T12:46:28Z</time>
      </trkpt>
      <trkpt lat="43.4821" lon="5.95093">
        <ele>251.9</ele>
        <time>2016-04-08T12:46:36Z</time>
      </trkpt>
      <trkpt lat="43.48201" lon="5.95095">
        <ele>252</ele>
        <time>2016-04-08T12:46:45Z</time>
      </trkpt>
      <trkpt lat="43.48192" lon="5.95095">
        <ele>252</ele>
        <time>2016-04-08T12:46:53Z</time>
      </trkpt>
      <trkpt lat="43.48182" lon="5.95093">
        <ele>251.4</ele>
        <time>2016-04-08T12:47:01Z</time>
      </trkpt>
      <trkpt lat="43.48173" lon="5.95091">
        <ele>252.1</ele>
        <time>2016-04-08T12:47:10Z</time>
      </trkpt>
      <trkpt lat="43.48163" lon="5.95089">
        <ele>251.6</ele>
        <time>2016-04-08T12:47:19Z</time>
      </trkpt>
      <trkpt lat="43.48154" lon="5.95085">
        <ele>251.5</ele>
        <time>2016-04-08T12:47:28Z</time>
      </trkpt>
      <trkpt lat="43.48146" lon="5.95082">
        <ele>251.5</ele>
        <time>2016-04-08T12:47:37Z</time>
      </trkpt>
      <trkpt lat="43.48136" lon="5.95084">
        <ele>251.9</ele>
        <time>2016-04-08T12:47:46Z</time>
      </trkpt>
      <trkpt lat="43.48128" lon="5.95092">
        <ele>251.9</ele>
        <time>2016-04-08T12:47:54Z</time>
      </trkpt>
      <trkpt lat="43.4812" lon="5.95099">
        <ele>251.6</ele>
        <time>2016-04-08T12:48:04Z</time>
      </trkpt>
      <trkpt lat="43.48111" lon="5.95106">
        <ele>251.5</ele>
        <time>2016-04-08T12:48:12Z</time>
      </trkpt>
      <trkpt lat="43.48103" lon="5.95109">
        <ele>251.7</ele>
        <time>2016-04-08T12:48:20Z</time>
      </trkpt>
      <trkpt lat="43.48093" lon="5.9511">
        <ele>252</ele>
        <time>2016-04-08T12:48:30Z</time>
      </trkpt>
      <trkpt lat="43.48083" lon="5.95112">
        <ele>252.3</ele>
        <time>2016-04-08T12:48:39Z</time>
      </trkpt>
      <trkpt lat="43.48075" lon="5.95116">
        <ele>252.2</ele>
        <time>2016-04-08T12:48:51Z</time>
      </trkpt>
      <trkpt lat="43.48066" lon="5.95119">
        <ele>251.7</ele>
        <time>2016-04-08T12:49:21Z</time>
      </trkpt>
      <trkpt lat="43.48056" lon="5.9512">
        <ele>251.5</ele>
        <time>2016-04-08T12:49:31Z</time>
      </trkpt>
      <trkpt lat="43.48047" lon="5.95121">
        <ele>251.6</ele>
        <time>2016-04-08T12:49:40Z</time>
      </trkpt>
      <trkpt lat="43.48038" lon="5.95122">
        <ele>251.7</ele>
        <time>2016-04-08T12:49:49Z</time>
      </trkpt>
      <trkpt lat="43.48028" lon="5.95123">
        <ele>251.5</ele>
        <time>2016-04-08T12:50:00Z</time>
      </trkpt>
      <trkpt lat="43.48019" lon="5.95125">
        <ele>251.4</ele>
        <time>2016-04-08T12:50:09Z</time>
      </trkpt>
      <trkpt lat="43.4801" lon="5.9512">
        <ele>252.3</ele>
        <time>2016-04-08T12:50:18Z</time>
      </trkpt>
      <trkpt lat="43.48002" lon="5.95112">
        <ele>251.9</ele>
        <time>2016-04-08T12:50:28Z</time>
      </trkpt>
      <trkpt lat="43.47994" lon="5.95105">
        <ele>250.4</ele>
        <time>2016-04-08T12:50:40Z</time>
      </trkpt>
      <trkpt lat="43.47987" lon="5.95098">
        <ele>251.5</ele>
        <time>2016-04-08T12:50:49Z</time>
      </trkpt>
      <trkpt lat="43.47979" lon="5.95089">
        <ele>251.9</ele>
        <time>2016-04-08T12:50:59Z</time>
      </trkpt>
      <trkpt lat="43.47971" lon="5.95085">
        <ele>252.1</ele>
        <time>2016-04-08T12:51:08Z</time>
      </trkpt>
      <trkpt lat="43.47962" lon="5.9508">
        <ele>252.2</ele>
        <time>2016-04-08T12:51:17Z</time>
      </trkpt>
      <trkpt lat="43.47953" lon="5.95076">
        <ele>252.9</ele>
        <time>2016-04-08T12:51:25Z</time>
      </trkpt>
      <trkpt lat="43.47943" lon="5.95074">
        <ele>253.1</ele>
        <time>2016-04-08T12:51:33Z</time>
      </trkpt>
      <trkpt lat="43.47934" lon="5.95074">
        <ele>252.7</ele>
        <time>2016-04-08T12:51:41Z</time>
      </trkpt>
      <trkpt lat="43.47924" lon="5.95076">
        <ele>252.5</ele>
        <time>2016-04-08T12:51:51Z</time>
      </trkpt>
      <trkpt lat="43.47914" lon="5.95078">
        <ele>253.1</ele>
        <time>2016-04-08T12:52:00Z</time>
      </trkpt>
      <trkpt lat="43.47905" lon="5.95078">
        <ele>253.3</ele>
        <time>2016-04-08T12:52:09Z</time>
      </trkpt>
      <trkpt lat="43.47895" lon="5.95077">
        <ele>252.9</ele>
        <time>2016-04-08T12:52:18Z</time>
      </trkpt>
      <trkpt lat="43.47886" lon="5.95072">
        <ele>252.9</ele>
        <time>2016-04-08T12:52:26Z</time>
      </trkpt>
      <trkpt lat="43.47877" lon="5.95071">
        <ele>253.8</ele>
        <time>2016-04-08T12:52:35Z</time>
      </trkpt>
      <trkpt lat="43.47867" lon="5.95072">
        <ele>251.9</ele>
        <time>2016-04-08T12:52:43Z</time>
      </trkpt>
      <trkpt lat="43.47864" lon="5.95084">
        <ele>254</ele>
        <time>2016-04-08T12:54:32Z</time>
      </trkpt>
      <trkpt lat="43.47862" lon="5.95096">
        <ele>253.1</ele>
        <time>2016-04-08T12:54:44Z</time>
      </trkpt>
      <trkpt lat="43.4786" lon="5.95109">
        <ele>253</ele>
        <time>2016-04-08T12:54:52Z</time>
      </trkpt>
      <trkpt lat="43.4786" lon="5.95122">
        <ele>252.5</ele>
        <time>2016-04-08T12:55:01Z</time>
      </trkpt>
      <trkpt lat="43.47857" lon="5.95135">
        <ele>252.2</ele>
        <time>2016-04-08T12:55:10Z</time>
      </trkpt>
      <trkpt lat="43.47856" lon="5.95148">
        <ele>252.4</ele>
        <time>2016-04-08T12:55:46Z</time>
      </trkpt>
      <trkpt lat="43.47854" lon="5.9516">
        <ele>253.7</ele>
        <time>2016-04-08T12:55:54Z</time>
      </trkpt>
      <trkpt lat="43.47854" lon="5.95173">
        <ele>253</ele>
        <time>2016-04-08T12:56:02Z</time>
      </trkpt>
      <trkpt lat="43.47852" lon="5.95185">
        <ele>252.3</ele>
        <time>2016-04-08T12:56:11Z</time>
      </trkpt>
      <trkpt lat="43.47849" lon="5.95198">
        <ele>252.7</ele>
        <time>2016-04-08T12:56:20Z</time>
      </trkpt>
      <trkpt lat="43.47847" lon="5.95211">
        <ele>252.9</ele>
        <time>2016-04-08T12:56:28Z</time>
      </trkpt>
      <trkpt lat="43.47843" lon="5.95223">
        <ele>253.8</ele>
        <time>2016-04-08T12:56:36Z</time>
      </trkpt>
      <trkpt lat="43.47838" lon="5.95235">
        <ele>252.6</ele>
        <time>2016-04-08T12:56:44Z</time>
      </trkpt>
      <trkpt lat="43.47832" lon="5.95246">
        <ele>253.7</ele>
        <time>2016-04-08T12:56:52Z</time>
      </trkpt>
      <trkpt lat="43.47827" lon="5.95256">
        <ele>252.5</ele>
        <time>2016-04-08T12:57:00Z</time>
      </trkpt>
      <trkpt lat="43.47819" lon="5.95266">
        <ele>253.1</ele>
        <time>2016-04-08T12:57:09Z</time>
      </trkpt>
      <trkpt lat="43.47811" lon="5.95272">
        <ele>252.7</ele>
        <time>2016-04-08T12:57:18Z</time>
      </trkpt>
      <trkpt lat="43.47803" lon="5.95279">
        <ele>252.4</ele>
        <time>2016-04-08T12:57:29Z</time>
      </trkpt>
      <trkpt lat="43.47794" lon="5.95285">
        <ele>252.5</ele>
        <time>2016-04-08T12:57:37Z</time>
      </trkpt>
      <trkpt lat="43.47786" lon="5.9529">
        <ele>252.8</ele>
        <time>2016-04-08T12:57:48Z</time>
      </trkpt>
      <trkpt lat="43.47778" lon="5.95297">
        <ele>252.5</ele>
        <time>2016-04-08T12:58:11Z</time>
      </trkpt>
      <trkpt lat="43.4777" lon="5.95304">
        <ele>252.4</ele>
        <time>2016-04-08T12:58:19Z</time>
      </trkpt>
      <trkpt lat="43.47761" lon="5.95307">
        <ele>252.8</ele>
        <time>2016-04-08T12:58:26Z</time>
      </trkpt>
      <trkpt lat="43.47752" lon="5.95312">
        <ele>253.3</ele>
        <time>2016-04-08T12:58:35Z</time>
      </trkpt>
      <trkpt lat="43.47743" lon="5.95317">
        <ele>253.3</ele>
        <time>2016-04-08T12:58:43Z</time>
      </trkpt>
      <trkpt lat="43.47735" lon="5.95323">
        <ele>253.1</ele>
        <time>2016-04-08T12:58:51Z</time>
      </trkpt>
      <trkpt lat="43.47726" lon="5.95327">
        <ele>253.1</ele>
        <time>2016-04-08T12:58:59Z</time>
      </trkpt>
      <trkpt lat="43.47716" lon="5.95331">
        <ele>252.9</ele>
        <time>2016-04-08T12:59:07Z</time>
      </trkpt>
      <trkpt lat="43.47707" lon="5.95334">
        <ele>252.8</ele>
        <time>2016-04-08T12:59:16Z</time>
      </trkpt>
      <trkpt lat="43.47697" lon="5.95337">
        <ele>253.2</ele>
        <time>2016-04-08T12:59:25Z</time>
      </trkpt>
      <trkpt lat="43.47689" lon="5.95341">
        <ele>253.6</ele>
        <time>2016-04-08T12:59:34Z</time>
      </trkpt>
      <trkpt lat="43.4768" lon="5.95348">
        <ele>253.6</ele>
        <time>2016-04-08T12:59:43Z</time>
      </trkpt>
      <trkpt lat="43.47672" lon="5.95353">
        <ele>252.8</ele>
        <time>2016-04-08T12:59:51Z</time>
      </trkpt>
      <trkpt lat="43.47663" lon="5.95357">
        <ele>253.4</ele>
        <time>2016-04-08T12:59:59Z</time>
      </trkpt>
      <trkpt lat="43.47654" lon="5.95362">
        <ele>253.9</ele>
        <time>2016-04-08T13:00:09Z</time>
      </trkpt>
      <trkpt lat="43.47645" lon="5.95365">
        <ele>254.2</ele>
        <time>2016-04-08T13:00:18Z</time>
      </trkpt>
      <trkpt lat="43.47636" lon="5.9537">
        <ele>254.2</ele>
        <time>2016-04-08T13:00:27Z</time>
      </trkpt>
      <trkpt lat="43.47627" lon="5.95376">
        <ele>254.2</ele>
        <time>2016-04-08T13:00:35Z</time>
      </trkpt>
      <trkpt lat="43.47618" lon="5.9538">
        <ele>254.5</ele>
        <time>2016-04-08T13:00:43Z</time>
      </trkpt>
      <trkpt lat="43.47608" lon="5.95385">
        <ele>254.3</ele>
        <time>2016-04-08T13:00:52Z</time>
      </trkpt>
      <trkpt lat="43.47599" lon="5.95391">
        <ele>254.4</ele>
        <time>2016-04-08T13:01:00Z</time>
      </trkpt>
      <trkpt lat="43.47591" lon="5.95398">
        <ele>254.6</ele>
        <time>2016-04-08T13:01:07Z</time>
      </trkpt>
      <trkpt lat="43.47582" lon="5.95405">
        <ele>255.1</ele>
        <time>2016-04-08T13:01:16Z</time>
      </trkpt>
      <trkpt lat="43.47574" lon="5.95412">
        <ele>255.4</ele>
        <time>2016-04-08T13:01:24Z</time>
      </trkpt>
      <trkpt lat="43.47565" lon="5.95419">
        <ele>256</ele>
        <time>2016-04-08T13:01:32Z</time>
      </trkpt>
      <trkpt lat="43.47558" lon="5.95428">
        <ele>256.6</ele>
        <time>2016-04-08T13:01:40Z</time>
      </trkpt>
      <trkpt lat="43.4755" lon="5.95436">
        <ele>256.7</ele>
        <time>2016-04-08T13:01:48Z</time>
      </trkpt>
      <trkpt lat="43.47542" lon="5.95443">
        <ele>256.6</ele>
        <time>2016-04-08T13:01:58Z</time>
      </trkpt>
      <trkpt lat="43.47534" lon="5.95449">
        <ele>256.9</ele>
        <time>2016-04-08T13:02:07Z</time>
      </trkpt>
      <trkpt lat="43.47527" lon="5.95457">
        <ele>257.2</ele>
        <time>2016-04-08T13:02:16Z</time>
      </trkpt>
      <trkpt lat="43.4752" lon="5.95465">
        <ele>257.6</ele>
        <time>2016-04-08T13:02:25Z</time>
      </trkpt>
      <trkpt lat="43.4751" lon="5.95466">
        <ele>257.9</ele>
        <time>2016-04-08T13:02:34Z</time>
      </trkpt>
      <trkpt lat="43.47501" lon="5.95466">
        <ele>257.9</ele>
        <time>2016-04-08T13:02:41Z</time>
      </trkpt>
      <trkpt lat="43.47492" lon="5.95466">
        <ele>258.1</ele>
        <time>2016-04-08T13:02:50Z</time>
      </trkpt>
      <trkpt lat="43.47483" lon="5.95467">
        <ele>258.9</ele>
        <time>2016-04-08T13:02:58Z</time>
      </trkpt>
      <trkpt lat="43.47472" lon="5.95469">
        <ele>259.4</ele>
        <time>2016-04-08T13:03:07Z</time>
      </trkpt>
      <trkpt lat="43.47463" lon="5.95469">
        <ele>259.5</ele>
        <time>2016-04-08T13:03:15Z</time>
      </trkpt>
      <trkpt lat="43.47453" lon="5.95469">
        <ele>259.5</ele>
        <time>2016-04-08T13:03:50Z</time>
      </trkpt>
      <trkpt lat="43.47444" lon="5.95467">
        <ele>259.7</ele>
        <time>2016-04-08T13:04:03Z</time>
      </trkpt>
      <trkpt lat="43.47434" lon="5.95466">
        <ele>260</ele>
        <time>2016-04-08T13:04:14Z</time>
      </trkpt>
      <trkpt lat="43.47425" lon="5.95466">
        <ele>259.9</ele>
        <time>2016-04-08T13:04:22Z</time>
      </trkpt>
      <trkpt lat="43.47416" lon="5.95463">
        <ele>260.1</ele>
        <time>2016-04-08T13:04:32Z</time>
      </trkpt>
      <trkpt lat="43.47407" lon="5.95461">
        <ele>260.4</ele>
        <time>2016-04-08T13:04:42Z</time>
      </trkpt>
      <trkpt lat="43.47398" lon="5.95456">
        <ele>260.6</ele>
        <time>2016-04-08T13:04:52Z</time>
      </trkpt>
      <trkpt lat="43.47389" lon="5.95452">
        <ele>261.2</ele>
        <time>2016-04-08T13:05:01Z</time>
      </trkpt>
      <trkpt lat="43.47381" lon="5.95447">
        <ele>262.1</ele>
        <time>2016-04-08T13:05:11Z</time>
      </trkpt>
      <trkpt lat="43.47371" lon="5.95444">
        <ele>262.1</ele>
        <time>2016-04-08T13:05:21Z</time>
      </trkpt>
      <trkpt lat="43.47363" lon="5.95437">
        <ele>261.7</ele>
        <time>2016-04-08T13:05:32Z</time>
      </trkpt>
      <trkpt lat="43.47355" lon="5.95432">
        <ele>261.8</ele>
        <time>2016-04-08T13:05:43Z</time>
      </trkpt>
      <trkpt lat="43.47345" lon="5.95429">
        <ele>261.8</ele>
        <time>2016-04-08T13:05:52Z</time>
      </trkpt>
      <trkpt lat="43.47336" lon="5.95424">
        <ele>262</ele>
        <time>2016-04-08T13:06:00Z</time>
      </trkpt>
      <trkpt lat="43.47327" lon="5.9542">
        <ele>262.7</ele>
        <time>2016-04-08T13:06:09Z</time>
      </trkpt>
      <trkpt lat="43.47318" lon="5.95418">
        <ele>263.2</ele>
        <time>2016-04-08T13:06:18Z</time>
      </trkpt>
      <trkpt lat="43.47309" lon="5.95416">
        <ele>264.4</ele>
        <time>2016-04-08T13:06:33Z</time>
      </trkpt>
      <trkpt lat="43.473" lon="5.9541">
        <ele>266</ele>
        <time>2016-04-08T13:06:45Z</time>
      </trkpt>
      <trkpt lat="43.47292" lon="5.95403">
        <ele>267.1</ele>
        <time>2016-04-08T13:06:55Z</time>
      </trkpt>
      <trkpt lat="43.47287" lon="5.95393">
        <ele>268.2</ele>
        <time>2016-04-08T13:07:04Z</time>
      </trkpt>
      <trkpt lat="43.47279" lon="5.95387">
        <ele>269.1</ele>
        <time>2016-04-08T13:07:16Z</time>
      </trkpt>
      <trkpt lat="43.47271" lon="5.95377">
        <ele>270.3</ele>
        <time>2016-04-08T13:07:26Z</time>
      </trkpt>
      <trkpt lat="43.47262" lon="5.95373">
        <ele>271.4</ele>
        <time>2016-04-08T13:07:35Z</time>
      </trkpt>
      <trkpt lat="43.47253" lon="5.95367">
        <ele>272.7</ele>
        <time>2016-04-08T13:07:46Z</time>
      </trkpt>
      <trkpt lat="43.47245" lon="5.9536">
        <ele>274.5</ele>
        <time>2016-04-08T13:08:10Z</time>
      </trkpt>
      <trkpt lat="43.47236" lon="5.95359">
        <ele>273.6</ele>
        <time>2016-04-08T13:08:21Z</time>
      </trkpt>
      <trkpt lat="43.47233" lon="5.95347">
        <ele>271.3</ele>
        <time>2016-04-08T13:09:20Z</time>
      </trkpt>
      <trkpt lat="43.4723" lon="5.95335">
        <ele>270.3</ele>
        <time>2016-04-08T13:09:46Z</time>
      </trkpt>
      <trkpt lat="43.47224" lon="5.95325">
        <ele>272.4</ele>
        <time>2016-04-08T13:10:04Z</time>
      </trkpt>
      <trkpt lat="43.47215" lon="5.95321">
        <ele>273.9</ele>
        <time>2016-04-08T13:10:13Z</time>
      </trkpt>
      <trkpt lat="43.47206" lon="5.9532">
        <ele>275</ele>
        <time>2016-04-08T13:10:31Z</time>
      </trkpt>
      <trkpt lat="43.47197" lon="5.95319">
        <ele>275</ele>
        <time>2016-04-08T13:10:45Z</time>
      </trkpt>
      <trkpt lat="43.4719" lon="5.95327">
        <ele>276.3</ele>
        <time>2016-04-08T13:11:23Z</time>
      </trkpt>
      <trkpt lat="43.47186" lon="5.95339">
        <ele>275.9</ele>
        <time>2016-04-08T13:11:55Z</time>
      </trkpt>
      <trkpt lat="43.47178" lon="5.95344">
        <ele>276.5</ele>
        <time>2016-04-08T13:12:28Z</time>
      </trkpt>
      <trkpt lat="43.47187" lon="5.95343">
        <ele>275.1</ele>
        <time>2016-04-08T13:13:19Z</time>
      </trkpt>
      <trkpt lat="43.47195" lon="5.9535">
        <ele>274.6</ele>
        <time>2016-04-08T13:13:31Z</time>
      </trkpt>
      <trkpt lat="43.47204" lon="5.95353">
        <ele>274</ele>
        <time>2016-04-08T13:13:51Z</time>
      </trkpt>
      <trkpt lat="43.47205" lon="5.95366">
        <ele>271</ele>
        <time>2016-04-08T13:14:21Z</time>
      </trkpt>
      <trkpt lat="43.47203" lon="5.95371">
        <ele>268.2</ele>
        <time>2016-04-08T13:16:30Z</time>
      </trkpt>
    </trkseg>
  </trk>
</gpx>